Time,TemperatureF,DewpointF,PressureIn,WindDirection,WindDirectionDegrees,WindSpeedMPH,WindSpeedGustMPH,Humidity,HourlyPrecipIn,Conditions,Clouds,dailyrainin,SoftwareType,DateUTC
2013-01-19 00:02:00,36.0,30.1,30.13,WSW,247,7.9,9.2,79,0.00,CLR,,0.00,WeatherDisplay:10.37,2013-01-19 06:02:00,
2013-01-19 00:03:00,36.0,30.1,30.13,WSW,247,8.1,10.4,79,0.00,CLR,,0.00,WeatherDisplay:10.37,2013-01-19 06:03:00,
2013-01-19 00:04:00,36.0,30.1,30.13,WSW,247,8.1,11.5,79,0.00,CLR,,0.00,WeatherDisplay:10.37,2013-01-19 06:04:00,
2013-01-19 00:07:00,35.0,29.5,30.13,WSW,247,6.7,8.1,80,0.00,CLR,,0.00,WeatherDisplay:10.37,2013-01-19 06:07:00,
2013-01-19 00:08:00,35.0,29.5,30.13,WSW,247,6.4,9.2,80,0.00,CLR,,0.00,WeatherDisplay:10.37,2013-01-19 06:08:00,
2013-01-19 00:09:00,35.0,29.8,30.13,WSW,247,6.3,8.1,81,0.00,CLR,,0.00,WeatherDisplay:10.37,2013-01-19 06:09:00,
2013-01-19 00:13:00,36.0,30.4,30.12,WSW,247,6.6,8.1,80,0.00,CLR,,0.00,WeatherDisplay:10.37,2013-01-19 06:13:00,
2013-01-19 00:14:00,35.0,29.5,30.12,WSW,247,6.3,8.1,80,0.00,CLR,,0.00,WeatherDisplay:10.37,2013-01-19 06:14:00,
2013-01-19 00:18:00,35.0,29.5,30.12,WSW,247,8.0,9.2,80,0.00,CLR,,0.00,WeatherDisplay:10.37,2013-01-19 06:18:00,
2013-01-19 00:19:00,35.0,29.5,30.12,WSW,247,7.4,9.2,80,0.00,CLR,,0.00,WeatherDisplay:10.37,2013-01-19 06:19:00,
2013-01-19 00:23:00,35.0,29.5,30.12,WSW,247,8.0,10.4,80,0.00,CLR,,0.00,WeatherDisplay:10.37,2013-01-19 06:23:00,
2013-01-19 00:24:00,35.0,29.5,30.12,WSW,247,7.4,10.4,80,0.00,CLR,,0.00,WeatherDisplay:10.37,2013-01-19 06:24:00,
2013-01-19 00:25:00,35.0,29.5,30.12,WSW,247,7.8,10.4,80,0.00,CLR,,0.00,WeatherDisplay:10.37,2013-01-19 06:25:00,
2013-01-19 00:28:00,35.0,29.1,30.12,WSW,247,5.7,8.1,79,0.00,CLR,,0.00,WeatherDisplay:10.37,2013-01-19 06:28:00,
2013-01-19 00:29:00,35.0,29.1,30.12,WSW,247,6.0,7.0,79,0.00,CLR,,0.00,WeatherDisplay:10.37,2013-01-19 06:29:00,
2013-01-19 00:30:00,35.0,29.1,30.12,NW,315,4.1,6.9,79,0.00,CLR,,0.00,WeatherDisplay:10.37,2013-01-19 06:30:00,
2013-01-19 00:33:00,35.0,29.5,30.12,WSW,247,5.6,9.2,80,0.00,CLR,,0.00,WeatherDisplay:10.37,2013-01-19 06:33:00,
2013-01-19 00:34:00,35.0,29.5,30.12,WSW,247,6.2,8.1,80,0.00,CLR,,0.00,WeatherDisplay:10.37,2013-01-19 06:34:00,
2013-01-19 00:35:00,35.0,29.5,30.12,WNW,292,5.3,8.1,80,0.00,CLR,,0.00,WeatherDisplay:10.37,2013-01-19 06:35:00,
2013-01-19 00:38:00,35.0,29.8,30.12,WSW,247,4.8,6.9,81,0.00,CLR,,0.00,WeatherDisplay:10.37,2013-01-19 06:38:00,
2013-01-19 00:39:00,35.0,29.8,30.12,WSW,247,4.9,6.9,81,0.00,CLR,,0.00,WeatherDisplay:10.37,2013-01-19 06:39:00,
2013-01-19 00:40:00,35.0,29.8,30.12,SW,225,3.9,5.0,81,0.00,CLR,,0.00,WeatherDisplay:10.37,2013-01-19 06:40:00,
2013-01-19 00:43:00,35.0,30.1,30.12,SSW,202,3.9,5.8,82,0.00,CLR,,0.00,WeatherDisplay:10.37,2013-01-19 06:43:00,
2013-01-19 00:44:00,35.0,30.1,30.12,SW,225,3.8,5.8,82,0.00,CLR,,0.00,WeatherDisplay:10.37,2013-01-19 06:44:00,
2013-01-19 00:45:00,35.0,30.1,30.12,SSW,202,4.3,5.8,82,0.00,CLR,,0.00,WeatherDisplay:10.37,2013-01-19 06:45:00,
2013-01-19 00:48:00,35.0,29.8,30.12,SW,225,4.2,4.6,81,0.00,CLR,,0.00,WeatherDisplay:10.37,2013-01-19 06:48:00,
2013-01-19 00:49:00,35.0,29.8,30.12,SSW,202,4.2,4.6,81,0.00,CLR,,0.00,WeatherDisplay:10.37,2013-01-19 06:49:00,
2013-01-19 00:50:00,35.0,30.1,30.12,SW,225,4.8,5.8,82,0.00,CLR,,0.00,WeatherDisplay:10.37,2013-01-19 06:50:00,
2013-01-19 00:54:00,35.0,29.8,30.13,SW,225,4.0,4.6,81,0.00,CLR,,0.00,WeatherDisplay:10.37,2013-01-19 06:54:00,
2013-01-19 00:55:00,35.0,30.1,30.13,SW,225,4.1,5.0,82,0.00,CLR,,0.00,WeatherDisplay:10.37,2013-01-19 06:55:00,
2013-01-19 00:59:00,34.0,29.1,30.13,SSW,202,5.1,5.8,82,0.00,CLR,,0.00,WeatherDisplay:10.37,2013-01-19 06:59:00,
2013-01-19 01:00:00,35.0,30.1,30.13,SSW,202,3.4,4.6,82,0.00,CLR,,0.00,WeatherDisplay:10.37,2013-01-19 07:00:00,
2013-01-19 01:04:00,34.0,29.1,30.12,SSW,202,4.6,5.8,82,0.00,CLR,,0.00,WeatherDisplay:10.37,2013-01-19 07:04:00,
2013-01-19 01:05:00,34.0,29.1,30.12,SSW,202,4.3,5.0,82,0.00,CLR,,0.00,WeatherDisplay:10.37,2013-01-19 07:05:00,
2013-01-19 01:09:00,34.0,29.1,30.12,SSW,202,4.3,5.0,82,0.00,CLR,,0.00,WeatherDisplay:10.37,2013-01-19 07:09:00,
2013-01-19 01:10:00,34.0,29.1,30.12,SW,225,4.2,4.6,82,0.00,CLR,,0.00,WeatherDisplay:10.37,2013-01-19 07:10:00,
2013-01-19 01:14:00,34.0,29.1,30.13,WSW,247,4.1,6.0,82,0.00,CLR,,0.00,WeatherDisplay:10.37,2013-01-19 07:14:00,
2013-01-19 01:15:00,34.0,29.4,30.13,SSW,202,4.4,5.8,83,0.00,CLR,,0.00,WeatherDisplay:10.37,2013-01-19 07:15:00,
2013-01-19 01:16:00,34.0,29.4,30.13,SSW,202,4.6,6.0,83,0.00,CLR,,0.00,WeatherDisplay:10.37,2013-01-19 07:16:00,
2013-01-19 01:19:00,34.0,29.4,30.13,SSW,202,4.0,4.6,83,0.00,CLR,,0.00,WeatherDisplay:10.37,2013-01-19 07:19:00,
2013-01-19 01:20:00,34.0,29.4,30.13,SSW,202,3.3,3.5,83,0.00,CLR,,0.00,WeatherDisplay:10.37,2013-01-19 07:20:00,
2013-01-19 01:21:00,34.0,29.4,30.13,SSW,202,3.4,4.0,83,0.00,CLR,,0.00,WeatherDisplay:10.37,2013-01-19 07:21:00,
2013-01-19 01:24:00,34.0,29.1,30.13,SSW,202,3.0,3.5,82,0.00,CLR,,0.00,WeatherDisplay:10.37,2013-01-19 07:24:00,
2013-01-19 01:26:00,34.0,29.1,30.13,WNW,292,1.7,3.5,82,0.00,CLR,,0.00,WeatherDisplay:10.37,2013-01-19 07:26:00,
2013-01-19 01:29:00,33.0,28.4,30.13,SSE,157,2.6,4.0,83,0.00,CLR,,0.00,WeatherDisplay:10.37,2013-01-19 07:29:00,
2013-01-19 01:31:00,33.0,28.7,30.13,SSE,157,3.1,3.5,84,0.00,CLR,,0.00,WeatherDisplay:10.37,2013-01-19 07:31:00,
2013-01-19 01:34:00,33.0,28.7,30.13,SSE,157,1.8,3.5,84,0.00,CLR,,0.00,WeatherDisplay:10.37,2013-01-19 07:34:00,
2013-01-19 01:36:00,33.0,28.7,30.13,SSE,157,2.0,3.5,84,0.00,CLR,,0.00,WeatherDisplay:10.37,2013-01-19 07:36:00,
2013-01-19 01:37:00,33.0,28.7,30.13,SSE,157,2.4,3.5,84,0.00,CLR,,0.00,WeatherDisplay:10.37,2013-01-19 07:37:00,
2013-01-19 01:39:00,33.0,28.7,30.13,SSE,157,2.2,3.5,84,0.00,CLR,,0.00,WeatherDisplay:10.37,2013-01-19 07:39:00,
2013-01-19 01:41:00,33.0,28.7,30.13,SSE,157,1.1,3.0,84,0.00,CLR,,0.00,WeatherDisplay:10.37,2013-01-19 07:41:00,
2013-01-19 01:42:00,33.0,28.7,30.14,SSE,157,2.1,3.5,84,0.00,CLR,,0.00,WeatherDisplay:10.37,2013-01-19 07:42:00,
2013-01-19 01:44:00,32.0,28.0,30.14,SE,135,1.4,3.5,85,0.00,CLR,,0.00,WeatherDisplay:10.37,2013-01-19 07:44:00,
2013-01-19 01:45:00,32.0,28.0,30.14,SE,135,1.4,3.5,85,0.00,CLR,,0.00,WeatherDisplay:10.37,2013-01-19 07:45:00,
2013-01-19 01:47:00,32.0,28.3,30.14,SE,135,1.9,3.5,86,0.00,CLR,,0.00,WeatherDisplay:10.37,2013-01-19 07:47:00,
2013-01-19 01:48:00,32.0,28.3,30.14,SE,135,2.5,3.5,86,0.00,CLR,,0.00,WeatherDisplay:10.37,2013-01-19 07:48:00,
2013-01-19 01:49:00,32.0,28.6,30.14,SSE,157,3.0,3.5,87,0.00,CLR,,0.00,WeatherDisplay:10.37,2013-01-19 07:49:00,
2013-01-19 01:50:00,32.0,28.6,30.14,SSE,157,2.5,3.5,87,0.00,CLR,,0.00,WeatherDisplay:10.37,2013-01-19 07:50:00,
2013-01-19 01:52:00,32.0,28.6,30.14,SSE,157,2.6,3.5,87,0.00,CLR,,0.00,WeatherDisplay:10.37,2013-01-19 07:52:00,
2013-01-19 01:53:00,33.0,29.3,30.13,SSE,157,3.2,3.5,86,0.00,CLR,,0.00,WeatherDisplay:10.37,2013-01-19 07:53:00,
2013-01-19 01:54:00,32.0,28.6,30.13,SSE,157,3.1,3.5,87,0.00,CLR,,0.00,WeatherDisplay:10.37,2013-01-19 07:54:00,
2013-01-19 01:55:00,32.0,28.6,30.13,SSE,157,2.6,3.5,87,0.00,CLR,,0.00,WeatherDisplay:10.37,2013-01-19 07:55:00,
2013-01-19 01:57:00,32.0,28.6,30.13,SSE,157,2.5,3.5,87,0.00,CLR,,0.00,WeatherDisplay:10.37,2013-01-19 07:57:00,
2013-01-19 01:58:00,32.0,28.6,30.13,SSE,157,2.7,3.5,87,0.00,CLR,,0.00,WeatherDisplay:10.37,2013-01-19 07:58:00,
2013-01-19 01:59:00,32.0,28.6,30.13,SSE,157,3.2,4.0,87,0.00,CLR,,0.00,WeatherDisplay:10.37,2013-01-19 07:59:00,
2013-01-19 02:00:00,32.0,28.6,30.13,SSE,157,2.8,3.5,87,0.00,CLR,,0.00,WeatherDisplay:10.37,2013-01-19 08:00:00,
2013-01-19 02:02:00,33.0,29.3,30.13,ESE,112,2.7,3.5,86,0.00,CLR,,0.00,WeatherDisplay:10.37,2013-01-19 08:02:00,
2013-01-19 02:04:00,33.0,29.3,30.13,ESE,112,0.8,4.6,86,0.00,CLR,,0.00,WeatherDisplay:10.37,2013-01-19 08:04:00,
2013-01-19 02:05:00,33.0,29.6,30.13,SSE,157,4.0,5.0,87,0.00,CLR,,0.00,WeatherDisplay:10.37,2013-01-19 08:05:00,
2013-01-19 02:07:00,33.0,29.6,30.13,SSE,157,2.4,5.8,87,0.00,CLR,,0.00,WeatherDisplay:10.37,2013-01-19 08:07:00,
2013-01-19 02:09:00,33.0,29.6,30.13,South,180,2.6,4.0,87,0.00,CLR,,0.00,WeatherDisplay:10.37,2013-01-19 08:09:00,
2013-01-19 02:10:00,33.0,29.6,30.13,South,180,1.1,3.5,87,0.00,CLR,,0.00,WeatherDisplay:10.37,2013-01-19 08:10:00,
2013-01-19 02:13:00,33.0,29.3,30.13,South,180,1.8,3.5,86,0.00,CLR,,0.00,WeatherDisplay:10.37,2013-01-19 08:13:00,
2013-01-19 02:14:00,33.0,29.3,30.13,South,180,0.9,3.5,86,0.00,CLR,,0.00,WeatherDisplay:10.37,2013-01-19 08:14:00,
2013-01-19 02:15:00,33.0,29.3,30.13,WSW,247,1.3,3.0,86,0.00,CLR,,0.00,WeatherDisplay:10.37,2013-01-19 08:15:00,
2013-01-19 02:18:00,33.0,29.6,30.13,WSW,247,6.6,9.2,87,0.00,CLR,,0.00,WeatherDisplay:10.37,2013-01-19 08:18:00,
2013-01-19 02:19:00,33.0,29.3,30.13,WSW,247,6.2,11.0,86,0.00,CLR,,0.00,WeatherDisplay:10.37,2013-01-19 08:19:00,
2013-01-19 02:20:00,33.0,29.0,30.13,SW,225,3.6,11.5,85,0.00,CLR,,0.00,WeatherDisplay:10.37,2013-01-19 08:20:00,
2013-01-19 02:23:00,34.0,29.7,30.13,WSW,247,8.2,11.5,84,0.00,CLR,,0.00,WeatherDisplay:10.37,2013-01-19 08:23:00,
2013-01-19 02:24:00,34.0,29.7,30.13,WSW,247,6.2,9.2,84,0.00,CLR,,0.00,WeatherDisplay:10.37,2013-01-19 08:24:00,
2013-01-19 02:25:00,34.0,29.7,30.13,SSW,202,5.0,9.2,84,0.00,CLR,,0.00,WeatherDisplay:10.37,2013-01-19 08:25:00,
2013-01-19 02:28:00,33.0,28.7,30.13,WSW,247,4.5,5.8,84,0.00,CLR,,0.00,WeatherDisplay:10.37,2013-01-19 08:28:00,
2013-01-19 02:29:00,33.0,28.7,30.13,SSW,202,3.9,6.9,84,0.00,CLR,,0.00,WeatherDisplay:10.37,2013-01-19 08:29:00,
2013-01-19 02:30:00,33.0,28.7,30.13,SSW,202,2.5,6.9,84,0.00,CLR,,0.00,WeatherDisplay:10.37,2013-01-19 08:30:00,
2013-01-19 02:31:00,33.0,28.7,30.13,SSE,157,1.6,4.6,84,0.00,CLR,,0.00,WeatherDisplay:10.37,2013-01-19 08:31:00,
2013-01-19 02:33:00,33.0,28.7,30.13,SSE,157,0.2,2.3,84,0.00,CLR,,0.00,WeatherDisplay:10.37,2013-01-19 08:33:00,
2013-01-19 02:34:00,33.0,28.7,30.13,NW,315,0.0,1.1,84,0.00,CLR,,0.00,WeatherDisplay:10.37,2013-01-19 08:34:00,
2013-01-19 02:35:00,33.0,28.7,30.13,SSE,157,0.0,1.1,84,0.00,CLR,,0.00,WeatherDisplay:10.37,2013-01-19 08:35:00,
2013-01-19 02:36:00,33.0,28.7,30.13,SSE,157,0.0,0.0,84,0.00,CLR,,0.00,WeatherDisplay:10.37,2013-01-19 08:36:00,
2013-01-19 02:38:00,32.0,28.0,30.13,SSE,157,0.5,1.1,85,0.00,CLR,,0.00,WeatherDisplay:10.37,2013-01-19 08:38:00,
2013-01-19 02:40:00,32.0,28.0,30.13,NNW,337,0.6,3.5,85,0.00,CLR,,0.00,WeatherDisplay:10.37,2013-01-19 08:40:00,
2013-01-19 02:41:00,32.0,28.3,30.13,SW,225,1.3,4.6,86,0.00,CLR,,0.00,WeatherDisplay:10.37,2013-01-19 08:41:00,
2013-01-19 02:43:00,32.0,28.3,30.13,SE,135,0.6,3.5,86,0.00,CLR,,0.00,WeatherDisplay:10.37,2013-01-19 08:43:00,
2013-01-19 02:45:00,32.0,28.3,30.13,SE,135,0.3,2.3,86,0.00,CLR,,0.00,WeatherDisplay:10.37,2013-01-19 08:45:00,
2013-01-19 02:47:00,32.0,28.3,30.13,SE,135,0.2,1.1,86,0.00,CLR,,0.00,WeatherDisplay:10.37,2013-01-19 08:47:00,
2013-01-19 02:49:00,31.0,27.6,30.13,SE,135,0.0,0.0,87,0.00,CLR,,0.00,WeatherDisplay:10.37,2013-01-19 08:49:00,
2013-01-19 02:50:00,31.0,27.6,30.13,WSW,247,1.7,3.5,87,0.00,CLR,,0.00,WeatherDisplay:10.37,2013-01-19 08:50:00,
2013-01-19 02:52:00,31.0,27.6,30.13,SW,225,0.3,3.5,87,0.00,CLR,,0.00,WeatherDisplay:10.37,2013-01-19 08:52:00,
2013-01-19 02:54:00,31.0,27.9,30.13,SSW,202,1.4,3.5,88,0.00,CLR,,0.00,WeatherDisplay:10.37,2013-01-19 08:54:00,
2013-01-19 02:55:00,31.0,27.9,30.13,SSW,202,2.2,3.5,88,0.00,CLR,,0.00,WeatherDisplay:10.37,2013-01-19 08:55:00,
2013-01-19 02:57:00,31.0,27.9,30.13,SSW,202,0.0,1.1,88,0.00,CLR,,0.00,WeatherDisplay:10.37,2013-01-19 08:57:00,
2013-01-19 02:59:00,31.0,28.4,30.13,West,270,3.1,3.5,90,0.00,CLR,,0.00,WeatherDisplay:10.37,2013-01-19 08:59:00,
2013-01-19 03:00:00,31.0,28.4,30.13,WSW,247,3.8,5.0,90,0.00,CLR,,0.00,WeatherDisplay:10.37,2013-01-19 09:00:00,
2013-01-19 03:02:00,31.0,28.4,30.15,West,270,4.4,6.9,90,0.00,CLR,,0.00,WeatherDisplay:10.37,2013-01-19 09:02:00,
2013-01-19 03:04:00,31.0,28.7,30.15,WSW,247,5.7,8.1,91,0.00,CLR,,0.00,WeatherDisplay:10.37,2013-01-19 09:04:00,
2013-01-19 03:05:00,31.0,28.4,30.15,WSW,247,5.8,6.9,90,0.00,CLR,,0.00,WeatherDisplay:10.37,2013-01-19 09:05:00,
2013-01-19 03:06:00,32.0,29.4,30.15,WSW,247,6.5,7.0,90,0.00,CLR,,0.00,WeatherDisplay:10.37,2013-01-19 09:06:00,
2013-01-19 03:08:00,32.0,29.1,30.15,WSW,247,5.8,6.9,89,0.00,CLR,,0.00,WeatherDisplay:10.37,2013-01-19 09:08:00,
2013-01-19 03:09:00,32.0,29.1,30.15,WSW,247,5.2,6.9,89,0.00,CLR,,0.00,WeatherDisplay:10.37,2013-01-19 09:09:00,
2013-01-19 03:10:00,32.0,28.8,30.15,WSW,247,4.0,6.9,88,0.00,CLR,,0.00,WeatherDisplay:10.37,2013-01-19 09:10:00,
2013-01-19 03:11:00,32.0,28.8,30.15,WSW,247,3.8,4.6,88,0.00,CLR,,0.00,WeatherDisplay:10.37,2013-01-19 09:11:00,
2013-01-19 03:13:00,32.0,28.8,30.13,WSW,247,3.8,4.6,88,0.00,CLR,,0.00,WeatherDisplay:10.37,2013-01-19 09:13:00,
2013-01-19 03:14:00,32.0,28.8,30.13,WSW,247,4.1,5.0,88,0.00,CLR,,0.00,WeatherDisplay:10.37,2013-01-19 09:14:00,
2013-01-19 03:15:00,31.0,27.9,30.13,WSW,247,4.0,5.0,88,0.00,CLR,,0.00,WeatherDisplay:10.37,2013-01-19 09:15:00,
2013-01-19 03:16:00,31.0,27.9,30.13,WSW,247,4.1,4.6,88,0.00,CLR,,0.00,WeatherDisplay:10.37,2013-01-19 09:16:00,
2013-01-19 03:18:00,31.0,28.1,30.13,WSW,247,4.2,4.6,89,0.00,CLR,,0.00,WeatherDisplay:10.37,2013-01-19 09:18:00,
2013-01-19 03:19:00,31.0,28.4,30.13,WSW,247,4.8,5.8,90,0.00,CLR,,0.00,WeatherDisplay:10.37,2013-01-19 09:19:00,
2013-01-19 03:20:00,31.0,28.4,30.13,WSW,247,4.2,6.0,90,0.00,CLR,,0.00,WeatherDisplay:10.37,2013-01-19 09:20:00,
2013-01-19 03:21:00,31.0,28.4,30.13,WSW,247,4.3,5.8,90,0.00,CLR,,0.00,WeatherDisplay:10.37,2013-01-19 09:21:00,
2013-01-19 03:23:00,31.0,28.4,30.13,WSW,247,5.3,7.0,90,0.00,CLR,,0.00,WeatherDisplay:10.37,2013-01-19 09:23:00,
2013-01-19 03:24:00,31.0,28.4,30.13,WSW,247,4.7,6.9,90,0.00,CLR,,0.00,WeatherDisplay:10.37,2013-01-19 09:24:00,
2013-01-19 03:26:00,31.0,28.4,30.13,WSW,247,4.3,5.8,90,0.00,CLR,,0.00,WeatherDisplay:10.37,2013-01-19 09:26:00,
2013-01-19 03:28:00,31.0,28.4,30.13,WSW,247,5.2,6.9,90,0.00,CLR,,0.00,WeatherDisplay:10.37,2013-01-19 09:28:00,
2013-01-19 03:30:00,32.0,29.4,30.13,WSW,247,4.6,6.9,90,0.00,CLR,,0.00,WeatherDisplay:10.37,2013-01-19 09:30:00,
2013-01-19 03:31:00,32.0,29.4,30.13,WNW,292,3.8,4.6,90,0.00,CLR,,0.00,WeatherDisplay:10.37,2013-01-19 09:31:00,
2013-01-19 03:33:00,32.0,29.4,30.13,WSW,247,4.9,8.1,90,0.00,CLR,,0.00,WeatherDisplay:10.37,2013-01-19 09:33:00,
2013-01-19 03:35:00,32.0,29.1,30.13,WSW,247,5.4,8.0,89,0.00,CLR,,0.00,WeatherDisplay:10.37,2013-01-19 09:35:00,
2013-01-19 03:36:00,32.0,29.4,30.13,West,270,6.3,8.1,90,0.00,CLR,,0.00,WeatherDisplay:10.37,2013-01-19 09:36:00,
2013-01-19 03:37:00,32.0,29.1,30.13,WSW,247,6.2,9.0,89,0.00,CLR,,0.00,WeatherDisplay:10.37,2013-01-19 09:37:00,
2013-01-19 03:38:00,32.0,28.8,30.13,WSW,247,5.6,10.4,88,0.00,CLR,,0.00,WeatherDisplay:10.37,2013-01-19 09:38:00,
2013-01-19 03:40:00,32.0,28.8,30.13,WSW,247,5.7,6.9,88,0.00,CLR,,0.00,WeatherDisplay:10.37,2013-01-19 09:40:00,
2013-01-19 03:41:00,32.0,28.8,30.13,WSW,247,6.6,9.2,88,0.00,CLR,,0.00,WeatherDisplay:10.37,2013-01-19 09:41:00,
2013-01-19 03:42:00,32.0,28.8,30.13,WSW,247,6.9,9.2,88,0.00,CLR,,0.00,WeatherDisplay:10.37,2013-01-19 09:42:00,
2013-01-19 03:43:00,32.0,28.8,30.13,WSW,247,5.2,8.1,88,0.00,CLR,,0.00,WeatherDisplay:10.37,2013-01-19 09:43:00,
2013-01-19 03:45:00,32.0,28.8,30.13,WSW,247,6.0,8.1,88,0.00,CLR,,0.00,WeatherDisplay:10.37,2013-01-19 09:45:00,
2013-01-19 03:46:00,32.0,28.8,30.13,WSW,247,6.4,8.1,88,0.00,CLR,,0.00,WeatherDisplay:10.37,2013-01-19 09:46:00,
2013-01-19 03:47:00,32.0,28.8,30.13,WSW,247,6.3,8.1,88,0.00,CLR,,0.00,WeatherDisplay:10.37,2013-01-19 09:47:00,
2013-01-19 03:48:00,32.0,28.8,30.13,WSW,247,7.0,8.1,88,0.00,CLR,,0.00,WeatherDisplay:10.37,2013-01-19 09:48:00,
2013-01-19 03:50:00,32.0,28.8,30.13,WSW,247,6.6,8.1,88,0.00,CLR,,0.00,WeatherDisplay:10.37,2013-01-19 09:50:00,
2013-01-19 03:51:00,32.0,28.8,30.13,WSW,247,5.0,8.1,88,0.00,CLR,,0.00,WeatherDisplay:10.37,2013-01-19 09:51:00,
2013-01-19 03:52:00,32.0,28.8,30.12,SW,225,4.3,5.8,88,0.00,CLR,,0.00,WeatherDisplay:10.37,2013-01-19 09:52:00,
2013-01-19 03:53:00,32.0,28.8,30.12,SW,225,3.9,4.6,88,0.00,CLR,,0.00,WeatherDisplay:10.37,2013-01-19 09:53:00,
2013-01-19 03:55:00,31.0,28.4,30.12,SW,225,3.7,4.0,90,0.00,CLR,,0.00,WeatherDisplay:10.37,2013-01-19 09:55:00,
2013-01-19 03:56:00,31.0,28.4,30.12,SW,225,4.2,5.0,90,0.00,CLR,,0.00,WeatherDisplay:10.37,2013-01-19 09:56:00,
2013-01-19 03:58:00,31.0,28.4,30.12,SW,225,3.4,4.6,90,0.00,CLR,,0.00,WeatherDisplay:10.37,2013-01-19 09:58:00,
2013-01-19 04:00:00,31.0,28.4,30.12,West,270,3.4,4.6,90,0.00,CLR,,0.00,WeatherDisplay:10.37,2013-01-19 10:00:00,
2013-01-19 04:02:00,31.0,28.4,30.12,West,270,4.0,4.6,90,0.00,CLR,,0.00,WeatherDisplay:10.37,2013-01-19 10:02:00,
2013-01-19 04:03:00,32.0,29.4,30.12,NW,315,5.5,8.1,90,0.00,CLR,,0.00,WeatherDisplay:10.37,2013-01-19 10:03:00,
2013-01-19 04:05:00,32.0,29.4,30.12,SW,225,6.0,9.2,90,0.00,CLR,,0.00,WeatherDisplay:10.37,2013-01-19 10:05:00,
2013-01-19 04:07:00,32.0,29.1,30.12,WSW,247,5.2,6.9,89,0.00,CLR,,0.00,WeatherDisplay:10.37,2013-01-19 10:07:00,
2013-01-19 04:08:00,32.0,28.8,30.12,WSW,247,6.4,9.2,88,0.00,CLR,,0.00,WeatherDisplay:10.37,2013-01-19 10:08:00,
2013-01-19 04:10:00,32.0,28.8,30.12,West,270,4.8,6.9,88,0.00,CLR,,0.00,WeatherDisplay:10.37,2013-01-19 10:10:00,
2013-01-19 04:12:00,32.0,28.8,30.12,WSW,247,6.3,10.0,88,0.00,CLR,,0.00,WeatherDisplay:10.37,2013-01-19 10:12:00,
2013-01-19 04:13:00,32.0,28.8,30.12,WSW,247,6.1,10.4,88,0.00,CLR,,0.00,WeatherDisplay:10.37,2013-01-19 10:13:00,
2013-01-19 04:15:00,32.0,28.8,30.12,West,270,5.8,9.2,88,0.00,CLR,,0.00,WeatherDisplay:10.37,2013-01-19 10:15:00,
2013-01-19 04:17:00,32.0,28.6,30.12,SW,225,4.7,6.9,87,0.00,CLR,,0.00,WeatherDisplay:10.37,2013-01-19 10:17:00,
2013-01-19 04:18:00,32.0,28.6,30.12,SSW,202,4.6,5.0,87,0.00,CLR,,0.00,WeatherDisplay:10.37,2013-01-19 10:18:00,
2013-01-19 04:20:00,32.0,28.6,30.12,SSW,202,5.2,6.9,87,0.00,CLR,,0.00,WeatherDisplay:10.37,2013-01-19 10:20:00,
2013-01-19 04:22:00,32.0,28.6,30.12,SSW,202,4.7,6.9,87,0.00,CLR,,0.00,WeatherDisplay:10.37,2013-01-19 10:22:00,
2013-01-19 04:23:00,32.0,28.6,30.11,SW,225,5.1,5.8,87,0.00,CLR,,0.00,WeatherDisplay:10.37,2013-01-19 10:23:00,
2013-01-19 04:24:00,32.0,28.6,30.11,SW,225,5.2,6.0,87,0.00,CLR,,0.00,WeatherDisplay:10.37,2013-01-19 10:24:00,
2013-01-19 04:25:00,32.0,28.8,30.11,SW,225,5.5,6.9,88,0.00,CLR,,0.00,WeatherDisplay:10.37,2013-01-19 10:25:00,
2013-01-19 04:27:00,32.0,28.8,30.11,SW,225,5.6,6.9,88,0.00,CLR,,0.00,WeatherDisplay:10.37,2013-01-19 10:27:00,
2013-01-19 04:28:00,32.0,28.8,30.11,WSW,247,5.4,7.0,88,0.00,CLR,,0.00,WeatherDisplay:10.37,2013-01-19 10:28:00,
2013-01-19 04:29:00,32.0,28.8,30.11,SW,225,5.5,5.8,88,0.00,CLR,,0.00,WeatherDisplay:10.37,2013-01-19 10:29:00,
2013-01-19 04:30:00,32.0,28.8,30.11,SW,225,4.7,5.8,88,0.00,CLR,,0.00,WeatherDisplay:10.37,2013-01-19 10:30:00,
2013-01-19 04:32:00,32.0,28.8,30.11,SW,225,6.4,9.2,88,0.00,CLR,,0.00,WeatherDisplay:10.37,2013-01-19 10:32:00,
2013-01-19 04:33:00,32.0,28.6,30.11,WSW,247,4.6,6.9,87,0.00,CLR,,0.00,WeatherDisplay:10.37,2013-01-19 10:33:00,
2013-01-19 04:34:00,32.0,28.8,30.11,WSW,247,4.6,6.9,88,0.00,CLR,,0.00,WeatherDisplay:10.37,2013-01-19 10:34:00,
2013-01-19 04:35:00,32.0,28.8,30.11,SW,225,5.0,6.9,88,0.00,CLR,,0.00,WeatherDisplay:10.37,2013-01-19 10:35:00,
2013-01-19 04:37:00,32.0,28.8,30.11,WSW,247,4.0,6.0,88,0.00,CLR,,0.00,WeatherDisplay:10.37,2013-01-19 10:37:00,
2013-01-19 04:38:00,32.0,28.8,30.11,SW,225,4.8,8.1,88,0.00,CLR,,0.00,WeatherDisplay:10.37,2013-01-19 10:38:00,
2013-01-19 04:39:00,32.0,28.8,30.11,WSW,247,5.2,8.1,88,0.00,CLR,,0.00,WeatherDisplay:10.37,2013-01-19 10:39:00,
2013-01-19 04:40:00,32.0,28.8,30.11,SW,225,4.4,8.1,88,0.00,CLR,,0.00,WeatherDisplay:10.37,2013-01-19 10:40:00,
2013-01-19 04:42:00,32.0,28.8,30.11,SW,225,5.3,6.9,88,0.00,CLR,,0.00,WeatherDisplay:10.37,2013-01-19 10:42:00,
2013-01-19 04:43:00,32.0,28.8,30.11,West,270,4.7,8.1,88,0.00,CLR,,0.00,WeatherDisplay:10.37,2013-01-19 10:43:00,
2013-01-19 04:44:00,32.0,28.8,30.11,SW,225,4.5,6.9,88,0.00,CLR,,0.00,WeatherDisplay:10.37,2013-01-19 10:44:00,
2013-01-19 04:46:00,32.0,28.8,30.11,WSW,247,5.1,8.1,88,0.00,CLR,,0.00,WeatherDisplay:10.37,2013-01-19 10:46:00,
2013-01-19 04:47:00,32.0,28.8,30.11,WSW,247,7.2,9.2,88,0.00,CLR,,0.00,WeatherDisplay:10.37,2013-01-19 10:47:00,
2013-01-19 04:48:00,32.0,28.8,30.11,WSW,247,7.5,10.4,88,0.00,CLR,,0.00,WeatherDisplay:10.37,2013-01-19 10:48:00,
2013-01-19 04:49:00,32.0,28.8,30.11,West,270,7.7,11.5,88,0.00,CLR,,0.00,WeatherDisplay:10.37,2013-01-19 10:49:00,
2013-01-19 04:51:00,32.0,28.8,30.11,WSW,247,8.1,10.0,88,0.00,CLR,,0.00,WeatherDisplay:10.37,2013-01-19 10:51:00,
2013-01-19 04:53:00,32.0,28.6,30.11,WSW,247,6.9,11.5,87,0.00,CLR,,0.00,WeatherDisplay:10.37,2013-01-19 10:53:00,
2013-01-19 04:54:00,32.0,28.6,30.11,NW,315,6.1,10.4,87,0.00,CLR,,0.00,WeatherDisplay:10.37,2013-01-19 10:54:00,
2013-01-19 04:56:00,32.0,28.6,30.11,WSW,247,6.9,13.8,87,0.00,CLR,,0.00,WeatherDisplay:10.37,2013-01-19 10:56:00,
2013-01-19 04:58:00,32.0,28.6,30.11,SW,225,6.7,10.4,87,0.00,CLR,,0.00,WeatherDisplay:10.37,2013-01-19 10:58:00,
2013-01-19 04:59:00,32.0,28.6,30.11,WSW,247,7.2,10.4,87,0.00,CLR,,0.00,WeatherDisplay:10.37,2013-01-19 10:59:00,
2013-01-19 05:02:00,32.0,28.8,30.11,NW,315,5.0,8.1,88,0.00,CLR,,0.00,WeatherDisplay:10.37,2013-01-19 11:02:00,
2013-01-19 05:03:00,32.0,28.6,30.11,WSW,247,5.4,8.1,87,0.00,CLR,,0.00,WeatherDisplay:10.37,2013-01-19 11:03:00,
2013-01-19 05:04:00,32.0,28.8,30.11,WNW,292,4.6,8.1,88,0.00,CLR,,0.00,WeatherDisplay:10.37,2013-01-19 11:04:00,
2013-01-19 05:07:00,32.0,28.8,30.11,WSW,247,3.6,7.0,88,0.00,CLR,,0.00,WeatherDisplay:10.37,2013-01-19 11:07:00,
2013-01-19 05:08:00,32.0,28.8,30.11,WSW,247,4.7,6.9,88,0.00,CLR,,0.00,WeatherDisplay:10.37,2013-01-19 11:08:00,
2013-01-19 05:09:00,32.0,28.8,30.11,West,270,4.3,6.9,88,0.00,CLR,,0.00,WeatherDisplay:10.37,2013-01-19 11:09:00,
2013-01-19 05:13:00,32.0,28.8,30.11,WSW,247,4.5,6.9,88,0.00,CLR,,0.00,WeatherDisplay:10.37,2013-01-19 11:13:00,
2013-01-19 06:48:00,34.0,28.2,30.11,WSW,247,11.4,19.6,79,0.00,CLR,,0.00,WeatherDisplay:10.37,2013-01-19 12:48:00,
2013-01-19 06:53:00,34.0,28.2,30.12,WSW,247,8.4,15.0,79,0.00,CLR,,0.00,WeatherDisplay:10.37,2013-01-19 12:53:00,
2013-01-19 06:58:00,34.0,28.2,30.12,WSW,247,9.7,11.5,79,0.00,CLR,,0.00,WeatherDisplay:10.37,2013-01-19 12:58:00,
2013-01-19 06:59:00,34.0,28.2,30.12,WSW,247,8.7,12.7,79,0.00,CLR,,0.00,WeatherDisplay:10.37,2013-01-19 12:59:00,
2013-01-19 07:03:00,33.0,27.8,30.12,WSW,247,6.1,13.8,81,0.00,CLR,,0.00,WeatherDisplay:10.37,2013-01-19 13:03:00,
2013-01-19 07:04:00,33.0,27.8,30.12,WNW,292,5.7,9.2,81,0.00,CLR,,0.00,WeatherDisplay:10.37,2013-01-19 13:04:00,
2013-01-19 07:08:00,33.0,27.8,30.12,WSW,247,3.0,6.9,81,0.00,CLR,,0.00,WeatherDisplay:10.37,2013-01-19 13:08:00,
2013-01-19 07:09:00,33.0,27.8,30.12,NNW,337,5.2,9.2,81,0.00,CLR,,0.00,WeatherDisplay:10.37,2013-01-19 13:09:00,
2013-01-19 07:13:00,33.0,27.8,30.13,NW,315,7.3,8.1,81,0.00,CLR,,0.00,WeatherDisplay:10.37,2013-01-19 13:13:00,
2013-01-19 07:14:00,33.0,27.8,30.13,NW,315,0.4,9.2,81,0.00,CLR,,0.00,WeatherDisplay:10.37,2013-01-19 13:14:00,
2013-01-19 07:15:00,33.0,28.1,30.13,WSW,247,2.8,9.2,82,0.00,CLR,,0.00,WeatherDisplay:10.37,2013-01-19 13:15:00,
2013-01-19 07:18:00,32.0,27.4,30.13,WNW,292,1.3,3.5,83,0.00,CLR,,0.00,WeatherDisplay:10.37,2013-01-19 13:18:00,
2013-01-19 07:19:00,32.0,27.4,30.13,NNE,22,1.7,4.0,83,0.00,CLR,,0.00,WeatherDisplay:10.37,2013-01-19 13:19:00,
2013-01-19 07:20:00,32.0,27.4,30.13,WNW,292,3.1,5.0,83,0.00,CLR,,0.00,WeatherDisplay:10.37,2013-01-19 13:20:00,
2013-01-19 07:23:00,33.0,28.4,30.15,WSW,247,5.2,10.4,83,0.00,CLR,,0.00,WeatherDisplay:10.37,2013-01-19 13:23:00,
2013-01-19 07:24:00,33.0,28.4,30.15,WSW,247,7.2,11.5,83,0.00,CLR,,0.00,WeatherDisplay:10.37,2013-01-19 13:24:00,
2013-01-19 07:25:00,33.0,28.1,30.15,WSW,247,9.1,15.0,82,0.00,CLR,,0.00,WeatherDisplay:10.37,2013-01-19 13:25:00,
2013-01-19 07:28:00,33.0,27.8,30.15,West,270,9.3,11.5,81,0.00,CLR,,0.00,WeatherDisplay:10.37,2013-01-19 13:28:00,
2013-01-19 07:29:00,33.0,27.8,30.15,WSW,247,7.9,13.8,81,0.00,CLR,,0.00,WeatherDisplay:10.37,2013-01-19 13:29:00,
2013-01-19 07:31:00,33.0,27.8,30.15,WSW,247,4.1,6.9,81,0.00,CLR,,0.00,WeatherDisplay:10.37,2013-01-19 13:31:00,
2013-01-19 07:34:00,33.0,27.8,30.14,WSW,247,6.3,10.4,81,0.00,CLR,,0.00,WeatherDisplay:10.37,2013-01-19 13:34:00,
2013-01-19 07:36:00,33.0,27.8,30.14,West,270,7.8,10.4,81,0.00,CLR,,0.00,WeatherDisplay:10.37,2013-01-19 13:36:00,
2013-01-19 07:39:00,33.0,27.8,30.14,WSW,247,6.5,10.0,81,0.00,CLR,,0.00,WeatherDisplay:10.37,2013-01-19 13:39:00,
2013-01-19 07:41:00,33.0,27.8,30.14,WSW,247,7.6,10.4,81,0.00,CLR,,0.00,WeatherDisplay:10.37,2013-01-19 13:41:00,
2013-01-19 07:44:00,33.0,27.8,30.15,WSW,247,8.7,11.5,81,0.00,CLR,,0.00,WeatherDisplay:10.37,2013-01-19 13:44:00,
2013-01-19 07:45:00,33.0,27.8,30.15,WSW,247,7.1,11.5,81,0.00,CLR,,0.00,WeatherDisplay:10.37,2013-01-19 13:45:00,
2013-01-19 07:48:00,33.0,27.8,30.15,WSW,247,6.7,11.5,81,0.00,CLR,,0.00,WeatherDisplay:10.37,2013-01-19 13:48:00,
2013-01-19 07:50:00,33.0,27.8,30.15,WSW,247,7.5,11.0,81,0.00,CLR,,0.00,WeatherDisplay:10.37,2013-01-19 13:50:00,
2013-01-19 07:53:00,33.0,27.8,30.16,NW,315,7.7,10.4,81,0.00,CLR,,0.00,WeatherDisplay:10.37,2013-01-19 13:53:00,
2013-01-19 07:55:00,33.0,28.1,30.16,WSW,247,4.7,11.0,82,0.00,CLR,,0.00,WeatherDisplay:10.37,2013-01-19 13:55:00,
2013-01-19 07:58:00,33.0,28.1,30.16,WSW,247,8.6,11.5,82,0.00,CLR,,0.00,WeatherDisplay:10.37,2013-01-19 13:58:00,
2013-01-19 08:00:00,33.0,28.1,30.16,WSW,247,7.9,11.5,82,0.00,CLR,,0.00,WeatherDisplay:10.37,2013-01-19 14:00:00,
2013-01-19 08:03:00,33.0,28.1,30.16,WNW,292,8.2,11.5,82,0.00,CLR,,0.00,WeatherDisplay:10.37,2013-01-19 14:03:00,
2013-01-19 08:05:00,33.0,28.1,30.16,WSW,247,8.8,11.5,82,0.00,CLR,,0.00,WeatherDisplay:10.37,2013-01-19 14:05:00,
2013-01-19 08:08:00,33.0,27.8,30.16,SW,225,9.4,11.5,81,0.00,CLR,,0.00,WeatherDisplay:10.37,2013-01-19 14:08:00,
2013-01-19 08:10:00,33.0,27.8,30.16,West,270,10.1,12.7,81,0.00,CLR,,0.00,WeatherDisplay:10.37,2013-01-19 14:10:00,
2013-01-19 08:13:00,34.0,28.8,30.17,WSW,247,9.3,11.5,81,0.00,CLR,,0.00,WeatherDisplay:10.37,2013-01-19 14:13:00,
2013-01-19 08:15:00,34.0,28.5,30.17,WSW,247,10.4,13.8,80,0.00,CLR,,0.00,WeatherDisplay:10.37,2013-01-19 14:15:00,
2013-01-19 08:16:00,34.0,28.5,30.17,WSW,247,9.4,13.8,80,0.00,CLR,,0.00,WeatherDisplay:10.37,2013-01-19 14:16:00,
2013-01-19 08:18:00,33.0,27.5,30.17,WSW,247,9.0,12.7,80,0.00,CLR,,0.00,WeatherDisplay:10.37,2013-01-19 14:18:00,
2013-01-19 08:20:00,33.0,27.8,30.17,WSW,247,6.3,11.5,81,0.00,CLR,,0.00,WeatherDisplay:10.37,2013-01-19 14:20:00,
2013-01-19 08:21:00,33.0,27.8,30.17,WSW,247,7.4,10.0,81,0.00,CLR,,0.00,WeatherDisplay:10.37,2013-01-19 14:21:00,
2013-01-19 08:23:00,33.0,27.8,30.17,WSW,247,8.5,10.4,81,0.00,CLR,,0.00,WeatherDisplay:10.37,2013-01-19 14:23:00,
2013-01-19 08:25:00,33.0,27.8,30.17,WSW,247,7.6,10.4,81,0.00,CLR,,0.00,WeatherDisplay:10.37,2013-01-19 14:25:00,
2013-01-19 08:26:00,33.0,27.8,30.17,WSW,247,7.4,10.4,81,0.00,CLR,,0.00,WeatherDisplay:10.37,2013-01-19 14:26:00,
2013-01-19 08:29:00,33.0,28.1,30.17,WSW,247,7.7,11.5,82,0.00,CLR,,0.00,WeatherDisplay:10.37,2013-01-19 14:29:00,
2013-01-19 08:31:00,33.0,27.8,30.17,WSW,247,8.8,10.4,81,0.00,CLR,,0.00,WeatherDisplay:10.37,2013-01-19 14:31:00,
2013-01-19 08:32:00,33.0,27.8,30.17,WSW,247,7.8,11.5,81,0.00,CLR,,0.00,WeatherDisplay:10.37,2013-01-19 14:32:00,
2013-01-19 08:34:00,34.0,28.5,30.17,WSW,247,8.1,11.5,80,0.00,CLR,,0.00,WeatherDisplay:10.37,2013-01-19 14:34:00,
2013-01-19 08:36:00,34.0,28.2,30.17,WSW,247,8.0,11.5,79,0.00,CLR,,0.00,WeatherDisplay:10.37,2013-01-19 14:36:00,
2013-01-19 08:37:00,34.0,28.2,30.17,WSW,247,8.8,11.5,79,0.00,CLR,,0.00,WeatherDisplay:10.37,2013-01-19 14:37:00,
2013-01-19 08:39:00,34.0,27.9,30.17,WSW,247,9.1,11.5,78,0.00,CLR,,0.00,WeatherDisplay:10.37,2013-01-19 14:39:00,
2013-01-19 08:41:00,35.0,28.5,30.17,West,270,11.0,12.7,77,0.00,CLR,,0.00,WeatherDisplay:10.37,2013-01-19 14:41:00,
2013-01-19 08:42:00,35.0,28.2,30.17,WSW,247,8.9,11.5,76,0.00,CLR,,0.00,WeatherDisplay:10.37,2013-01-19 14:42:00,
2013-01-19 08:44:00,35.0,28.2,30.18,West,270,9.9,11.5,76,0.00,CLR,,0.00,WeatherDisplay:10.37,2013-01-19 14:44:00,
2013-01-19 08:46:00,35.0,28.2,30.18,WNW,292,9.2,12.7,76,0.00,CLR,,0.00,WeatherDisplay:10.37,2013-01-19 14:46:00,
2013-01-19 08:47:00,35.0,28.2,30.18,WSW,247,8.0,11.5,76,0.00,CLR,,0.00,WeatherDisplay:10.37,2013-01-19 14:47:00,
2013-01-19 08:49:00,36.0,28.5,30.18,SE,135,8.8,11.5,74,0.00,CLR,,0.00,WeatherDisplay:10.37,2013-01-19 14:49:00,
2013-01-19 08:51:00,36.0,28.5,30.18,West,270,10.0,13.8,74,0.00,CLR,,0.00,WeatherDisplay:10.37,2013-01-19 14:51:00,
2013-01-19 08:52:00,36.0,28.2,30.18,West,270,9.8,12.7,73,0.00,CLR,,0.00,WeatherDisplay:10.37,2013-01-19 14:52:00,
2013-01-19 08:54:00,37.0,28.5,30.18,SW,225,8.2,10.4,71,0.00,CLR,,0.00,WeatherDisplay:10.37,2013-01-19 14:54:00,
2013-01-19 08:56:00,37.0,28.5,30.18,West,270,10.0,15.0,71,0.00,CLR,,0.00,WeatherDisplay:10.37,2013-01-19 14:56:00,
2013-01-19 08:57:00,38.0,28.4,30.18,WSW,247,9.4,11.5,68,0.00,CLR,,0.00,WeatherDisplay:10.37,2013-01-19 14:57:00,
2013-01-19 08:58:00,38.0,28.4,30.18,WSW,247,9.9,16.0,68,0.00,CLR,,0.00,WeatherDisplay:10.37,2013-01-19 14:58:00,
2013-01-19 08:59:00,38.0,28.4,30.18,WSW,247,9.7,13.8,68,0.00,CLR,,0.00,WeatherDisplay:10.37,2013-01-19 14:59:00,
2013-01-19 09:01:00,38.0,28.4,30.18,WSW,247,8.9,11.5,68,0.00,CLR,,0.00,WeatherDisplay:10.37,2013-01-19 15:01:00,
2013-01-19 09:02:00,38.0,28.4,30.16,West,270,10.0,15.0,68,0.00,CLR,,0.00,WeatherDisplay:10.37,2013-01-19 15:02:00,
2013-01-19 09:03:00,38.0,28.4,30.16,WSW,247,9.6,15.0,68,0.00,CLR,,0.00,WeatherDisplay:10.37,2013-01-19 15:03:00,
2013-01-19 09:05:00,38.0,28.4,30.16,WSW,247,8.4,14.0,68,0.00,CLR,,0.00,WeatherDisplay:10.37,2013-01-19 15:05:00,
2013-01-19 09:07:00,38.0,28.7,30.16,West,270,7.6,13.8,69,0.00,CLR,,0.00,WeatherDisplay:10.37,2013-01-19 15:07:00,
2013-01-19 09:08:00,38.0,28.7,30.16,West,270,8.1,13.0,69,0.00,CLR,,0.00,WeatherDisplay:10.37,2013-01-19 15:08:00,
2013-01-19 09:10:00,38.0,28.4,30.16,West,270,12.0,16.1,68,0.00,CLR,,0.00,WeatherDisplay:10.37,2013-01-19 15:10:00,
2013-01-19 09:12:00,38.0,28.4,30.16,WNW,292,11.6,18.0,68,0.00,CLR,,0.00,WeatherDisplay:10.37,2013-01-19 15:12:00,
2013-01-19 09:13:00,39.0,29.3,30.16,West,270,12.7,15.0,68,0.00,CLR,,0.00,WeatherDisplay:10.37,2013-01-19 15:13:00,
2013-01-19 09:15:00,39.0,28.6,30.16,WNW,292,9.6,12.0,66,0.00,CLR,,0.00,WeatherDisplay:10.37,2013-01-19 15:15:00,
2013-01-19 09:17:00,39.0,28.6,30.16,West,270,10.5,16.0,66,0.00,CLR,,0.00,WeatherDisplay:10.37,2013-01-19 15:17:00,
2013-01-19 09:18:00,39.0,28.6,30.16,WNW,292,11.7,13.8,66,0.00,CLR,,0.00,WeatherDisplay:10.37,2013-01-19 15:18:00,
2013-01-19 09:21:00,39.0,28.6,30.16,West,270,11.6,13.8,66,0.00,CLR,,0.00,WeatherDisplay:10.37,2013-01-19 15:21:00,
2013-01-19 09:22:00,39.0,28.6,30.16,West,270,11.2,16.1,66,0.00,CLR,,0.00,WeatherDisplay:10.37,2013-01-19 15:22:00,
2013-01-19 09:23:00,40.0,29.2,30.15,West,270,8.7,13.8,65,0.00,CLR,,0.00,WeatherDisplay:10.37,2013-01-19 15:23:00,
2013-01-19 09:26:00,40.0,29.2,30.15,West,270,10.0,15.0,65,0.00,CLR,,0.00,WeatherDisplay:10.37,2013-01-19 15:26:00,
2013-01-19 09:27:00,40.0,28.8,30.15,WSW,247,12.6,17.3,64,0.00,CLR,,0.00,WeatherDisplay:10.37,2013-01-19 15:27:00,
2013-01-19 09:28:00,40.0,29.2,30.15,WNW,292,7.8,12.7,65,0.00,CLR,,0.00,WeatherDisplay:10.37,2013-01-19 15:28:00,
2013-01-19 09:31:00,40.0,28.8,30.15,West,270,10.1,16.1,64,0.00,CLR,,0.00,WeatherDisplay:10.37,2013-01-19 15:31:00,
2013-01-19 09:32:00,40.0,28.8,30.15,WSW,247,12.2,16.1,64,0.00,CLR,,0.00,WeatherDisplay:10.37,2013-01-19 15:32:00,
2013-01-19 09:33:00,41.0,29.7,30.15,WSW,247,10.8,13.8,64,0.00,CLR,,0.00,WeatherDisplay:10.37,2013-01-19 15:33:00,
2013-01-19 09:36:00,41.0,29.7,30.15,West,270,9.5,12.0,64,0.00,CLR,,0.00,WeatherDisplay:10.37,2013-01-19 15:36:00,
2013-01-19 09:37:00,41.0,29.7,30.15,West,270,11.4,16.1,64,0.00,CLR,,0.00,WeatherDisplay:10.37,2013-01-19 15:37:00,
2013-01-19 09:38:00,41.0,29.7,30.15,WSW,247,9.0,15.0,64,0.00,CLR,,0.00,WeatherDisplay:10.37,2013-01-19 15:38:00,
2013-01-19 09:39:00,41.0,29.7,30.15,West,270,10.0,11.5,64,0.00,CLR,,0.00,WeatherDisplay:10.37,2013-01-19 15:39:00,
2013-01-19 09:41:00,41.0,29.7,30.15,WSW,247,8.2,13.8,64,0.00,CLR,,0.00,WeatherDisplay:10.37,2013-01-19 15:41:00,
2013-01-19 09:42:00,42.0,30.3,30.15,WSW,247,8.6,13.0,63,0.00,CLR,,0.00,WeatherDisplay:10.37,2013-01-19 15:42:00,
2013-01-19 09:44:00,42.0,30.7,30.15,WSW,247,8.8,12.7,64,0.00,CLR,,0.00,WeatherDisplay:10.37,2013-01-19 15:44:00,
2013-01-19 09:46:00,42.0,29.5,30.15,WNW,292,7.0,17.0,61,0.00,CLR,,0.00,WeatherDisplay:10.37,2013-01-19 15:46:00,
2013-01-19 09:47:00,42.0,29.9,30.15,NNE,22,11.3,17.3,62,0.00,CLR,,0.00,WeatherDisplay:10.37,2013-01-19 15:47:00,
2013-01-19 09:49:00,43.0,30.9,30.15,West,270,10.7,15.0,62,0.00,CLR,,0.00,WeatherDisplay:10.37,2013-01-19 15:49:00,
2013-01-19 09:51:00,43.0,30.1,30.15,WSW,247,11.8,14.0,60,0.00,CLR,,0.00,WeatherDisplay:10.37,2013-01-19 15:51:00,
2013-01-19 09:53:00,43.0,30.5,30.15,WSW,247,9.7,17.3,61,0.00,CLR,,0.00,WeatherDisplay:10.37,2013-01-19 15:53:00,
2013-01-19 09:54:00,43.0,29.6,30.15,WNW,292,11.3,18.4,59,0.00,CLR,,0.00,WeatherDisplay:10.37,2013-01-19 15:54:00,
2013-01-19 09:55:00,43.0,29.6,30.15,WSW,247,11.9,18.4,59,0.00,CLR,,0.00,WeatherDisplay:10.37,2013-01-19 15:55:00,
2013-01-19 09:57:00,43.0,29.2,30.15,WSW,247,9.0,12.7,58,0.00,CLR,,0.00,WeatherDisplay:10.37,2013-01-19 15:57:00,
2013-01-19 09:58:00,43.0,29.2,30.15,WSW,247,10.1,17.0,58,0.00,CLR,,0.00,WeatherDisplay:10.37,2013-01-19 15:58:00,
2013-01-19 09:59:00,43.0,29.6,30.15,WNW,292,8.0,13.8,59,0.00,CLR,,0.00,WeatherDisplay:10.37,2013-01-19 15:59:00,
2013-01-19 10:00:00,43.0,29.6,30.15,WSW,247,12.6,18.0,59,0.00,CLR,,0.00,WeatherDisplay:10.37,2013-01-19 16:00:00,
2013-01-19 10:02:00,44.0,30.2,30.15,WSW,247,13.4,19.6,58,0.00,CLR,,0.00,WeatherDisplay:10.37,2013-01-19 16:02:00,
2013-01-19 10:03:00,44.0,30.2,30.15,WSW,247,11.6,16.1,58,0.00,CLR,,0.00,WeatherDisplay:10.37,2013-01-19 16:03:00,
2013-01-19 10:04:00,44.0,30.2,30.15,WSW,247,10.4,17.3,58,0.00,CLR,,0.00,WeatherDisplay:10.37,2013-01-19 16:04:00,
2013-01-19 10:05:00,44.0,30.2,30.15,NNW,337,11.6,17.3,58,0.00,CLR,,0.00,WeatherDisplay:10.37,2013-01-19 16:05:00,
2013-01-19 10:07:00,44.0,30.6,30.15,WSW,247,8.6,13.8,59,0.00,CLR,,0.00,WeatherDisplay:10.37,2013-01-19 16:07:00,
2013-01-19 10:08:00,44.0,30.6,30.15,West,270,9.2,16.1,59,0.00,CLR,,0.00,WeatherDisplay:10.37,2013-01-19 16:08:00,
2013-01-19 10:09:00,44.0,30.6,30.15,WSW,247,12.6,17.3,59,0.00,CLR,,0.00,WeatherDisplay:10.37,2013-01-19 16:09:00,
2013-01-19 10:10:00,44.0,30.6,30.15,West,270,12.0,17.3,59,0.00,CLR,,0.00,WeatherDisplay:10.37,2013-01-19 16:10:00,
2013-01-19 10:12:00,44.0,30.6,30.15,WNW,292,13.1,18.0,59,0.00,CLR,,0.00,WeatherDisplay:10.37,2013-01-19 16:12:00,
2013-01-19 10:13:00,44.0,30.6,30.15,WSW,247,14.8,18.4,59,0.00,CLR,,0.00,WeatherDisplay:10.37,2013-01-19 16:13:00,
2013-01-19 10:14:00,44.0,30.2,30.15,West,270,11.3,16.1,58,0.00,CLR,,0.00,WeatherDisplay:10.37,2013-01-19 16:14:00,
2013-01-19 10:15:00,44.0,30.2,30.15,West,270,14.4,20.0,58,0.00,CLR,,0.00,WeatherDisplay:10.37,2013-01-19 16:15:00,
2013-01-19 10:18:00,44.0,30.2,30.15,WNW,292,10.0,17.3,58,0.00,CLR,,0.00,WeatherDisplay:10.37,2013-01-19 16:18:00,
2013-01-19 10:19:00,45.0,31.1,30.15,WSW,247,10.2,16.1,58,0.00,CLR,,0.00,WeatherDisplay:10.37,2013-01-19 16:19:00,
2013-01-19 10:20:00,45.0,31.1,30.15,WSW,247,10.7,15.0,58,0.00,CLR,,0.00,WeatherDisplay:10.37,2013-01-19 16:20:00,
2013-01-19 10:23:00,45.0,31.1,30.15,WSW,247,11.7,16.1,58,0.00,CLR,,0.00,WeatherDisplay:10.37,2013-01-19 16:23:00,
2013-01-19 10:25:00,44.0,30.2,30.15,NW,315,9.6,12.7,58,0.00,CLR,,0.00,WeatherDisplay:10.37,2013-01-19 16:25:00,
2013-01-19 10:28:00,44.0,29.7,30.15,WSW,247,12.7,17.0,57,0.00,CLR,,0.00,WeatherDisplay:10.37,2013-01-19 16:28:00,
2013-01-19 10:30:00,45.0,31.1,30.15,West,270,10.2,16.1,58,0.00,CLR,,0.00,WeatherDisplay:10.37,2013-01-19 16:30:00,
2013-01-19 10:33:00,45.0,31.1,30.15,South,180,8.7,18.4,58,0.00,CLR,,0.00,WeatherDisplay:10.37,2013-01-19 16:33:00,
2013-01-19 10:35:00,45.0,31.1,30.15,West,270,7.1,17.0,58,0.00,CLR,,0.00,WeatherDisplay:10.37,2013-01-19 16:35:00,
2013-01-19 10:38:00,45.0,30.7,30.15,NNE,22,10.1,13.8,57,0.00,CLR,,0.00,WeatherDisplay:10.37,2013-01-19 16:38:00,
2013-01-19 10:40:00,45.0,30.7,30.15,WNW,292,12.0,19.0,57,0.00,CLR,,0.00,WeatherDisplay:10.37,2013-01-19 16:40:00,
2013-01-19 10:41:00,45.0,30.7,30.15,West,270,13.6,19.6,57,0.00,CLR,,0.00,WeatherDisplay:10.37,2013-01-19 16:41:00,
2013-01-19 10:43:00,45.0,30.7,30.15,West,270,11.1,18.4,57,0.00,CLR,,0.00,WeatherDisplay:10.37,2013-01-19 16:43:00,
2013-01-19 10:45:00,45.0,30.7,30.15,WSW,247,14.8,20.7,57,0.00,CLR,,0.00,WeatherDisplay:10.37,2013-01-19 16:45:00,
2013-01-19 10:47:00,46.0,30.3,30.15,WSW,247,19.1,27.0,54,0.00,CLR,,0.00,WeatherDisplay:10.37,2013-01-19 16:47:00,
2013-01-19 10:48:00,46.0,30.3,30.15,West,270,15.7,26.5,54,0.00,CLR,,0.00,WeatherDisplay:10.37,2013-01-19 16:48:00,
2013-01-19 10:50:00,46.0,30.7,30.15,WNW,292,16.3,21.0,55,0.00,CLR,,0.00,WeatherDisplay:10.37,2013-01-19 16:50:00,
2013-01-19 10:52:00,46.0,29.8,30.15,WNW,292,18.9,26.5,53,0.00,CLR,,0.00,WeatherDisplay:10.37,2013-01-19 16:52:00,
2013-01-19 10:53:00,46.0,29.8,30.15,WNW,292,16.6,23.0,53,0.00,CLR,,0.00,WeatherDisplay:10.37,2013-01-19 16:53:00,
2013-01-19 10:54:00,46.0,29.8,30.15,WSW,247,14.1,23.0,53,0.00,CLR,,0.00,WeatherDisplay:10.37,2013-01-19 16:54:00,
2013-01-19 10:55:00,46.0,29.8,30.15,WNW,292,17.4,24.2,53,0.00,CLR,,0.00,WeatherDisplay:10.37,2013-01-19 16:55:00,
2013-01-19 10:57:00,47.0,30.7,30.15,NW,315,6.5,16.1,53,0.00,CLR,,0.00,WeatherDisplay:10.37,2013-01-19 16:57:00,
2013-01-19 10:58:00,47.0,30.7,30.15,West,270,17.8,23.0,53,0.00,CLR,,0.00,WeatherDisplay:10.37,2013-01-19 16:58:00,
2013-01-19 10:59:00,47.0,30.7,30.15,West,270,17.6,19.6,53,0.00,CLR,,0.00,WeatherDisplay:10.37,2013-01-19 16:59:00,
2013-01-19 11:00:00,47.0,30.3,30.15,West,270,19.2,26.5,52,0.00,CLR,,0.00,WeatherDisplay:10.37,2013-01-19 17:00:00,
2013-01-19 11:02:00,47.0,29.8,30.14,West,270,20.4,28.8,51,0.00,CLR,,0.00,WeatherDisplay:10.37,2013-01-19 17:02:00,
2013-01-19 11:03:00,47.0,30.3,30.14,WNW,292,18.2,26.5,52,0.00,CLR,,0.00,WeatherDisplay:10.37,2013-01-19 17:03:00,
2013-01-19 11:04:00,47.0,30.3,30.14,West,270,17.6,21.9,52,0.00,CLR,,0.00,WeatherDisplay:10.37,2013-01-19 17:04:00,
2013-01-19 11:05:00,48.0,30.2,30.14,WNW,292,17.3,24.2,50,0.00,CLR,,0.00,WeatherDisplay:10.37,2013-01-19 17:05:00,
2013-01-19 11:07:00,48.0,30.2,30.14,WNW,292,19.8,24.2,50,0.00,CLR,,0.00,WeatherDisplay:10.37,2013-01-19 17:07:00,
2013-01-19 11:09:00,48.0,30.2,30.14,WNW,292,17.2,22.0,50,0.00,CLR,,0.00,WeatherDisplay:10.37,2013-01-19 17:09:00,
2013-01-19 11:10:00,48.0,29.2,30.14,WNW,292,21.7,26.0,48,0.00,CLR,,0.00,WeatherDisplay:10.37,2013-01-19 17:10:00,
2013-01-19 11:15:00,48.0,29.7,30.13,WNW,292,22.6,28.8,49,0.00,CLR,,0.00,WeatherDisplay:10.37,2013-01-19 17:15:00,
2013-01-19 11:16:00,48.0,29.7,30.13,West,270,21.2,27.6,49,0.00,CLR,,0.00,WeatherDisplay:10.37,2013-01-19 17:16:00,
2013-01-19 11:20:00,48.0,29.2,30.13,WNW,292,22.7,27.0,48,0.00,CLR,,0.00,WeatherDisplay:10.37,2013-01-19 17:20:00,
2013-01-19 11:22:00,48.0,29.2,30.13,WNW,292,24.4,32.2,48,0.00,CLR,,0.00,WeatherDisplay:10.37,2013-01-19 17:22:00,
2013-01-19 11:26:00,48.0,28.7,30.14,West,270,23.4,32.0,47,0.00,CLR,,0.00,WeatherDisplay:10.37,2013-01-19 17:26:00,
2013-01-19 11:27:00,48.0,28.2,30.14,WNW,292,24.8,32.2,46,0.00,CLR,,0.00,WeatherDisplay:10.37,2013-01-19 17:27:00,
2013-01-19 11:32:00,48.0,28.2,30.14,WNW,292,23.1,32.2,46,0.00,CLR,,0.00,WeatherDisplay:10.37,2013-01-19 17:32:00,
2013-01-19 11:38:00,49.0,29.6,30.13,West,270,19.1,24.2,47,0.00,CLR,,0.00,WeatherDisplay:10.37,2013-01-19 17:38:00,
2013-01-19 11:43:00,49.0,28.6,30.14,WSW,247,20.1,25.3,45,0.00,CLR,,0.00,WeatherDisplay:10.37,2013-01-19 17:43:00,
2013-01-19 11:48:00,49.0,28.6,30.14,NW,315,22.3,26.5,45,0.00,CLR,,0.00,WeatherDisplay:10.37,2013-01-19 17:48:00,
2013-01-19 11:49:00,49.0,28.6,30.14,NW,315,20.7,26.5,45,0.00,CLR,,0.00,WeatherDisplay:10.37,2013-01-19 17:49:00,
2013-01-19 11:53:00,49.0,28.0,30.13,NW,315,23.0,27.6,44,0.00,CLR,,0.00,WeatherDisplay:10.37,2013-01-19 17:53:00,
2013-01-19 11:54:00,49.0,28.0,30.13,WNW,292,23.4,27.6,44,0.00,CLR,,0.00,WeatherDisplay:10.37,2013-01-19 17:54:00,
2013-01-19 11:58:00,49.0,29.6,30.13,WNW,292,22.1,24.2,47,0.00,CLR,,0.00,WeatherDisplay:10.37,2013-01-19 17:58:00,
2013-01-19 11:59:00,49.0,29.6,30.13,West,270,21.9,24.2,47,0.00,CLR,,0.00,WeatherDisplay:10.37,2013-01-19 17:59:00,
2013-01-19 12:03:00,49.0,29.6,30.13,West,270,19.8,27.6,47,0.00,CLR,,0.00,WeatherDisplay:10.37,2013-01-19 18:03:00,
2013-01-19 12:04:00,49.0,29.6,30.13,West,270,19.6,27.6,47,0.00,CLR,,0.00,WeatherDisplay:10.37,2013-01-19 18:04:00,
2013-01-19 12:10:00,49.0,29.1,30.13,WNW,292,22.8,25.3,46,0.00,CLR,,0.00,WeatherDisplay:10.37,2013-01-19 18:10:00,
2013-01-19 12:15:00,49.0,30.1,30.15,WNW,292,19.3,26.5,48,0.00,CLR,,0.00,WeatherDisplay:10.37,2013-01-19 18:15:00,
2013-01-19 12:20:00,49.0,29.1,30.15,West,270,16.7,28.8,46,0.00,CLR,,0.00,WeatherDisplay:10.37,2013-01-19 18:20:00,
2013-01-19 12:25:00,49.0,30.1,30.14,WNW,292,10.9,27.6,48,0.00,CLR,,0.00,WeatherDisplay:10.37,2013-01-19 18:25:00,
2013-01-19 12:30:00,49.0,29.6,30.14,WNW,292,24.4,28.8,47,0.00,CLR,,0.00,WeatherDisplay:10.37,2013-01-19 18:30:00,
2013-01-19 12:35:00,49.0,29.6,30.15,WNW,292,19.7,24.2,47,0.00,CLR,,0.00,WeatherDisplay:10.37,2013-01-19 18:35:00,
2013-01-19 12:36:00,49.0,29.6,30.15,WNW,292,18.5,26.5,47,0.00,CLR,,0.00,WeatherDisplay:10.37,2013-01-19 18:36:00,
2013-01-19 12:41:00,49.0,29.1,30.15,WNW,292,19.7,26.5,46,0.00,CLR,,0.00,WeatherDisplay:10.37,2013-01-19 18:41:00,
2013-01-19 12:42:00,49.0,29.1,30.15,WNW,292,19.3,26.5,46,0.00,CLR,,0.00,WeatherDisplay:10.37,2013-01-19 18:42:00,
2013-01-19 12:48:00,49.0,29.1,30.15,WNW,292,24.0,29.9,46,0.00,CLR,,0.00,WeatherDisplay:10.37,2013-01-19 18:48:00,
2013-01-19 12:54:00,50.0,31.1,30.15,WNW,292,18.6,24.2,48,0.00,CLR,,0.00,WeatherDisplay:10.37,2013-01-19 18:54:00,
2013-01-19 12:59:00,49.0,30.1,30.15,West,270,22.1,25.3,48,0.00,CLR,,0.00,WeatherDisplay:10.37,2013-01-19 18:59:00,
2013-01-19 13:02:00,50.0,31.1,30.15,WNW,292,19.3,21.9,48,0.00,CLR,,0.00,WeatherDisplay:10.37,2013-01-19 19:02:00,
2013-01-19 13:04:00,49.0,29.6,30.15,WNW,292,21.2,26.0,47,0.00,CLR,,0.00,WeatherDisplay:10.37,2013-01-19 19:04:00,
2013-01-19 13:09:00,50.0,31.1,30.15,WNW,292,19.7,24.2,48,0.00,CLR,,0.00,WeatherDisplay:10.37,2013-01-19 19:09:00,
2013-01-19 13:14:00,50.0,31.1,30.15,WNW,292,19.9,22.0,48,0.00,CLR,,0.00,WeatherDisplay:10.37,2013-01-19 19:14:00,
2013-01-19 13:16:00,50.0,31.1,30.15,WNW,292,21.8,27.6,48,0.00,CLR,,0.00,WeatherDisplay:10.37,2013-01-19 19:16:00,
2013-01-19 13:20:00,49.0,30.1,30.15,WNW,292,21.5,26.5,48,0.00,CLR,,0.00,WeatherDisplay:10.37,2013-01-19 19:20:00,
2013-01-19 13:23:00,50.0,31.1,30.15,WNW,292,20.0,25.0,48,0.00,CLR,,0.00,WeatherDisplay:10.37,2013-01-19 19:23:00,
2013-01-19 13:25:00,49.0,30.7,30.15,WNW,292,20.9,27.6,49,0.00,CLR,,0.00,WeatherDisplay:10.37,2013-01-19 19:25:00,
2013-01-19 13:28:00,50.0,31.1,30.15,NW,315,12.2,25.3,48,0.00,CLR,,0.00,WeatherDisplay:10.37,2013-01-19 19:28:00,
2013-01-19 13:32:00,50.0,32.1,30.15,West,270,16.6,24.2,50,0.00,CLR,,0.00,WeatherDisplay:10.37,2013-01-19 19:32:00,
2013-01-19 13:34:00,50.0,31.1,30.15,WNW,292,19.0,21.9,48,0.00,CLR,,0.00,WeatherDisplay:10.37,2013-01-19 19:34:00,
2013-01-19 13:37:00,50.0,31.1,30.15,WNW,292,17.0,21.9,48,0.00,CLR,,0.00,WeatherDisplay:10.37,2013-01-19 19:37:00,
2013-01-19 13:40:00,50.0,31.6,30.15,WNW,292,17.8,28.8,49,0.00,CLR,,0.00,WeatherDisplay:10.37,2013-01-19 19:40:00,
2013-01-19 13:42:00,50.0,31.1,30.15,WSW,247,20.3,26.5,48,0.00,CLR,,0.00,WeatherDisplay:10.37,2013-01-19 19:42:00,
2013-01-19 13:45:00,50.0,32.1,30.15,WNW,292,19.1,24.2,50,0.00,CLR,,0.00,WeatherDisplay:10.37,2013-01-19 19:45:00,
2013-01-19 13:48:00,50.0,31.6,30.15,West,270,21.5,26.5,49,0.00,CLR,,0.00,WeatherDisplay:10.37,2013-01-19 19:48:00,
2013-01-19 13:50:00,50.0,30.5,30.15,West,270,20.7,26.5,47,0.00,CLR,,0.00,WeatherDisplay:10.37,2013-01-19 19:50:00,
2013-01-19 13:53:00,51.0,32.0,30.14,WNW,292,19.3,23.0,48,0.00,CLR,,0.00,WeatherDisplay:10.37,2013-01-19 19:53:00,
2013-01-19 13:56:00,51.0,32.5,30.14,WNW,292,17.2,25.3,49,0.00,CLR,,0.00,WeatherDisplay:10.37,2013-01-19 19:56:00,
2013-01-19 13:58:00,51.0,31.5,30.14,WNW,292,20.7,25.3,47,0.00,CLR,,0.00,WeatherDisplay:10.37,2013-01-19 19:58:00,
2013-01-19 14:02:00,51.0,31.5,30.15,WNW,292,19.9,23.0,47,0.00,CLR,,0.00,WeatherDisplay:10.37,2013-01-19 20:02:00,
2013-01-19 14:05:00,51.0,32.0,30.15,WNW,292,17.2,21.9,48,0.00,CLR,,0.00,WeatherDisplay:10.37,2013-01-19 20:05:00,
2013-01-19 14:07:00,51.0,31.5,30.15,WNW,292,14.7,26.0,47,0.00,CLR,,0.00,WeatherDisplay:10.37,2013-01-19 20:07:00,
2013-01-19 14:10:00,51.0,32.0,30.15,West,270,19.0,26.5,48,0.00,CLR,,0.00,WeatherDisplay:10.37,2013-01-19 20:10:00,
2013-01-19 14:13:00,51.0,30.9,30.15,WNW,292,22.5,26.5,46,0.00,CLR,,0.00,WeatherDisplay:10.37,2013-01-19 20:13:00,
2013-01-19 14:15:00,51.0,32.0,30.15,WNW,292,19.0,24.2,48,0.00,CLR,,0.00,WeatherDisplay:10.37,2013-01-19 20:15:00,
2013-01-19 14:19:00,51.0,32.0,30.15,WNW,292,17.6,23.0,48,0.00,CLR,,0.00,WeatherDisplay:10.37,2013-01-19 20:19:00,
2013-01-19 14:22:00,51.0,32.0,30.15,WNW,292,18.3,25.3,48,0.00,CLR,,0.00,WeatherDisplay:10.37,2013-01-19 20:22:00,
2013-01-19 14:24:00,51.0,30.9,30.15,WNW,292,17.6,31.0,46,0.00,CLR,,0.00,WeatherDisplay:10.37,2013-01-19 20:24:00,
2013-01-19 14:27:00,51.0,31.5,30.15,WNW,292,21.4,25.3,47,0.00,CLR,,0.00,WeatherDisplay:10.37,2013-01-19 20:27:00,
2013-01-19 14:30:00,51.0,31.5,30.15,WNW,292,18.9,25.3,47,0.00,CLR,,0.00,WeatherDisplay:10.37,2013-01-19 20:30:00,
2013-01-19 14:33:00,51.0,32.0,30.16,WNW,292,17.3,23.0,48,0.00,CLR,,0.00,WeatherDisplay:10.37,2013-01-19 20:33:00,
2013-01-19 14:35:00,51.0,31.5,30.16,West,270,18.4,21.0,47,0.00,CLR,,0.00,WeatherDisplay:10.37,2013-01-19 20:35:00,
2013-01-19 14:38:00,51.0,31.5,30.16,West,270,20.5,24.2,47,0.00,CLR,,0.00,WeatherDisplay:10.37,2013-01-19 20:38:00,
2013-01-19 14:40:00,51.0,32.0,30.16,WNW,292,19.8,25.3,48,0.00,CLR,,0.00,WeatherDisplay:10.37,2013-01-19 20:40:00,
2013-01-19 14:43:00,51.0,31.5,30.16,WNW,292,21.5,23.0,47,0.00,CLR,,0.00,WeatherDisplay:10.37,2013-01-19 20:43:00,
2013-01-19 14:46:00,51.0,31.5,30.16,WNW,292,22.2,26.5,47,0.00,CLR,,0.00,WeatherDisplay:10.37,2013-01-19 20:46:00,
2013-01-19 14:49:00,51.0,31.5,30.16,NW,315,17.2,23.0,47,0.00,CLR,,0.00,WeatherDisplay:10.37,2013-01-19 20:49:00,
2013-01-19 14:52:00,51.0,31.5,30.16,West,270,19.8,21.9,47,0.00,CLR,,0.00,WeatherDisplay:10.37,2013-01-19 20:52:00,
2013-01-19 14:54:00,51.0,31.5,30.17,WNW,292,19.1,21.9,47,0.00,CLR,,0.00,WeatherDisplay:10.37,2013-01-19 20:54:00,
2013-01-19 14:57:00,51.0,31.5,30.17,WNW,292,17.0,21.9,47,0.00,CLR,,0.00,WeatherDisplay:10.37,2013-01-19 20:57:00,
2013-01-19 15:00:00,51.0,30.9,30.17,WNW,292,22.7,27.0,46,0.00,CLR,,0.00,WeatherDisplay:10.37,2013-01-19 21:00:00,
2013-01-19 15:03:00,51.0,31.5,30.17,NW,315,18.4,24.2,47,0.00,CLR,,0.00,WeatherDisplay:10.37,2013-01-19 21:03:00,
2013-01-19 15:05:00,51.0,31.5,30.17,NW,315,15.6,18.4,47,0.00,CLR,,0.00,WeatherDisplay:10.37,2013-01-19 21:05:00,
2013-01-19 15:08:00,51.0,31.5,30.17,NW,315,19.8,26.5,47,0.00,CLR,,0.00,WeatherDisplay:10.37,2013-01-19 21:08:00,
2013-01-19 15:10:00,51.0,31.5,30.17,WNW,292,16.8,25.3,47,0.00,CLR,,0.00,WeatherDisplay:10.37,2013-01-19 21:10:00,
2013-01-19 15:13:00,51.0,31.5,30.18,WNW,292,21.5,26.5,47,0.00,CLR,,0.00,WeatherDisplay:10.37,2013-01-19 21:13:00,
2013-01-19 15:16:00,51.0,31.5,30.18,NW,315,25.1,32.2,47,0.00,CLR,,0.00,WeatherDisplay:10.37,2013-01-19 21:16:00,
2013-01-19 15:19:00,51.0,31.5,30.18,WNW,292,23.1,30.0,47,0.00,CLR,,0.00,WeatherDisplay:10.37,2013-01-19 21:19:00,
2013-01-19 15:22:00,51.0,32.0,30.19,NNW,337,19.7,28.8,48,0.00,CLR,,0.00,WeatherDisplay:10.37,2013-01-19 21:22:00,
2013-01-19 15:24:00,51.0,32.0,30.19,NW,315,17.9,23.0,48,0.00,CLR,,0.00,WeatherDisplay:10.37,2013-01-19 21:24:00,
2013-01-19 15:28:00,51.0,32.0,30.19,WNW,292,17.3,25.3,48,0.00,CLR,,0.00,WeatherDisplay:10.37,2013-01-19 21:28:00,
2013-01-19 15:30:00,51.0,32.5,30.19,NW,315,16.6,26.5,49,0.00,CLR,,0.00,WeatherDisplay:10.37,2013-01-19 21:30:00,
2013-01-19 15:33:00,51.0,32.0,30.20,NW,315,22.7,38.0,48,0.00,CLR,,0.00,WeatherDisplay:10.37,2013-01-19 21:33:00,
2013-01-19 15:36:00,50.0,31.1,30.20,NW,315,19.8,26.5,48,0.00,CLR,,0.00,WeatherDisplay:10.37,2013-01-19 21:36:00,
2013-01-19 15:38:00,50.0,31.1,30.20,WNW,292,21.3,28.0,48,0.00,CLR,,0.00,WeatherDisplay:10.37,2013-01-19 21:38:00,
2013-01-19 15:42:00,50.0,31.1,30.20,NW,315,20.4,24.0,48,0.00,CLR,,0.00,WeatherDisplay:10.37,2013-01-19 21:42:00,
2013-01-19 15:43:00,50.0,31.1,30.21,NW,315,24.3,31.1,48,0.00,CLR,,0.00,WeatherDisplay:10.37,2013-01-19 21:43:00,
2013-01-19 15:47:00,50.0,31.6,30.21,WNW,292,20.1,24.2,49,0.00,CLR,,0.00,WeatherDisplay:10.37,2013-01-19 21:47:00,
2013-01-19 15:49:00,50.0,32.1,30.21,NW,315,18.3,24.2,50,0.00,CLR,,0.00,WeatherDisplay:10.37,2013-01-19 21:49:00,
2013-01-19 15:52:00,50.0,31.1,30.21,NW,315,27.2,32.2,48,0.00,CLR,,0.00,WeatherDisplay:10.37,2013-01-19 21:52:00,
2013-01-19 15:56:00,49.0,30.1,30.22,NW,315,24.6,36.8,48,0.00,CLR,,0.00,WeatherDisplay:10.37,2013-01-19 21:56:00,
2013-01-19 15:57:00,49.0,31.2,30.22,NW,315,18.9,27.6,50,0.00,CLR,,0.00,WeatherDisplay:10.37,2013-01-19 21:57:00,
2013-01-19 16:01:00,49.0,31.2,30.22,NW,315,20.5,27.0,50,0.00,CLR,,0.00,WeatherDisplay:10.37,2013-01-19 22:01:00,
2013-01-19 16:02:00,49.0,31.2,30.22,NW,315,22.0,28.0,50,0.00,CLR,,0.00,WeatherDisplay:10.37,2013-01-19 22:02:00,
2013-01-19 16:07:00,49.0,31.2,30.24,NNW,337,18.2,26.0,50,0.00,CLR,,0.00,WeatherDisplay:10.37,2013-01-19 22:07:00,
2013-01-19 16:08:00,49.0,31.2,30.24,NW,315,18.5,22.0,50,0.00,CLR,,0.00,WeatherDisplay:10.37,2013-01-19 22:08:00,
2013-01-19 16:13:00,48.0,30.2,30.25,NW,315,21.4,25.0,50,0.00,CLR,,0.00,WeatherDisplay:10.37,2013-01-19 22:13:00,
2013-01-19 16:18:00,48.0,31.2,30.25,NW,315,19.4,26.5,52,0.00,CLR,,0.00,WeatherDisplay:10.37,2013-01-19 22:18:00,
2013-01-19 16:19:00,48.0,31.2,30.25,NW,315,22.1,26.5,52,0.00,CLR,,0.00,WeatherDisplay:10.37,2013-01-19 22:19:00,
2013-01-19 16:23:00,48.0,31.7,30.27,WNW,292,13.2,17.3,53,0.00,CLR,,0.00,WeatherDisplay:10.37,2013-01-19 22:23:00,
2013-01-19 16:24:00,48.0,31.7,30.27,WNW,292,12.4,17.3,53,0.00,CLR,,0.00,WeatherDisplay:10.37,2013-01-19 22:24:00,
2013-01-19 16:29:00,47.0,30.7,30.27,WNW,292,14.3,19.6,53,0.00,CLR,,0.00,WeatherDisplay:10.37,2013-01-19 22:29:00,
2013-01-19 16:35:00,47.0,31.2,30.28,WNW,292,14.6,18.4,54,0.00,CLR,,0.00,WeatherDisplay:10.37,2013-01-19 22:35:00,
2013-01-19 16:40:00,47.0,30.7,30.28,NW,315,17.6,20.0,53,0.00,CLR,,0.00,WeatherDisplay:10.37,2013-01-19 22:40:00,
2013-01-19 16:45:00,47.0,31.2,30.28,WNW,292,16.4,23.0,54,0.00,CLR,,0.00,WeatherDisplay:10.37,2013-01-19 22:45:00,
2013-01-19 16:50:00,46.0,31.2,30.28,NW,315,13.1,16.1,56,0.00,CLR,,0.00,WeatherDisplay:10.37,2013-01-19 22:50:00,
2013-01-19 16:55:00,46.0,31.6,30.29,NW,315,11.5,18.4,57,0.00,CLR,,0.00,WeatherDisplay:10.37,2013-01-19 22:55:00,
2013-01-19 17:00:00,45.0,31.1,30.29,NW,315,10.0,15.0,58,0.00,CLR,,0.00,WeatherDisplay:10.37,2013-01-19 23:00:00,
2013-01-19 17:08:00,45.0,31.5,30.29,NW,315,10.6,15.0,59,0.00,CLR,,0.00,WeatherDisplay:10.37,2013-01-19 23:08:00,
2013-01-19 17:13:00,45.0,31.5,30.31,WNW,292,12.7,17.3,59,0.00,CLR,,0.00,WeatherDisplay:10.37,2013-01-19 23:13:00,
2013-01-19 17:18:00,44.0,30.6,30.31,NW,315,13.9,17.3,59,0.00,CLR,,0.00,WeatherDisplay:10.37,2013-01-19 23:18:00,
2013-01-19 17:24:00,44.0,30.2,30.32,NW,315,14.7,18.4,58,0.00,CLR,,0.00,WeatherDisplay:10.37,2013-01-19 23:24:00,
2013-01-19 17:29:00,44.0,30.2,30.32,WNW,292,12.6,18.4,58,0.00,CLR,,0.00,WeatherDisplay:10.37,2013-01-19 23:29:00,
2013-01-19 17:34:00,43.0,29.2,30.33,NW,315,10.3,12.7,58,0.00,CLR,,0.00,WeatherDisplay:10.37,2013-01-19 23:34:00,
2013-01-19 17:39:00,43.0,29.6,30.33,WNW,292,12.5,16.1,59,0.00,CLR,,0.00,WeatherDisplay:10.37,2013-01-19 23:39:00,
2013-01-19 17:44:00,43.0,28.8,30.33,WNW,292,13.5,19.6,57,0.00,CLR,,0.00,WeatherDisplay:10.37,2013-01-19 23:44:00,
2013-01-19 17:45:00,43.0,28.8,30.33,NW,315,18.9,26.5,57,0.00,CLR,,0.00,WeatherDisplay:10.37,2013-01-19 23:45:00,
2013-01-19 17:49:00,44.0,29.7,30.33,NW,315,17.0,21.9,57,0.00,CLR,,0.00,WeatherDisplay:10.37,2013-01-19 23:49:00,
2013-01-19 17:52:00,43.0,28.8,30.33,NNW,337,13.3,17.3,57,0.00,CLR,,0.00,WeatherDisplay:10.37,2013-01-19 23:52:00,
2013-01-19 17:55:00,43.0,28.8,30.34,WNW,292,15.8,21.9,57,0.00,CLR,,0.00,WeatherDisplay:10.37,2013-01-19 23:55:00,
2013-01-19 17:58:00,43.0,29.2,30.34,WNW,292,15.2,19.6,58,0.00,CLR,,0.00,WeatherDisplay:10.37,2013-01-19 23:58:00,
2013-01-19 18:00:00,42.0,29.1,30.34,NNW,337,12.9,18.4,60,0.00,CLR,,0.00,WeatherDisplay:10.37,2013-01-20 00:00:00,
2013-01-19 18:03:00,42.0,28.7,30.35,NNW,337,16.5,21.9,59,0.00,CLR,,0.00,WeatherDisplay:10.37,2013-01-20 00:03:00,
2013-01-19 18:06:00,42.0,27.9,30.35,NW,315,21.0,24.0,57,0.00,CLR,,0.00,WeatherDisplay:10.37,2013-01-20 00:06:00,
2013-01-19 18:08:00,42.0,27.9,30.35,WNW,292,15.9,20.7,57,0.00,CLR,,0.00,WeatherDisplay:10.37,2013-01-20 00:08:00,
2013-01-19 18:13:00,42.0,27.9,30.36,WNW,292,11.4,18.4,57,0.00,CLR,,0.00,WeatherDisplay:10.37,2013-01-20 00:13:00,
2013-01-19 18:18:00,42.0,27.9,30.36,NNW,337,17.8,24.0,57,0.00,CLR,,0.00,WeatherDisplay:10.37,2013-01-20 00:18:00,
2013-01-19 18:19:00,42.0,27.9,30.36,WNW,292,18.6,25.3,57,0.00,CLR,,0.00,WeatherDisplay:10.37,2013-01-20 00:19:00,
2013-01-19 18:24:00,41.0,27.3,30.37,NNW,337,15.3,19.6,58,0.00,CLR,,0.00,WeatherDisplay:10.37,2013-01-20 00:24:00,
2013-01-19 18:29:00,41.0,26.9,30.37,NW,315,19.6,26.5,57,0.00,CLR,,0.00,WeatherDisplay:10.37,2013-01-20 00:29:00,
2013-01-19 18:35:00,41.0,27.8,30.37,WNW,292,14.2,20.7,59,0.00,CLR,,0.00,WeatherDisplay:10.37,2013-01-20 00:35:00,
2013-01-19 18:40:00,40.0,27.2,30.37,NW,315,13.5,18.4,60,0.00,CLR,,0.00,WeatherDisplay:10.37,2013-01-20 00:40:00,
2013-01-19 18:45:00,40.0,27.6,30.38,WNW,292,12.3,17.3,61,0.00,CLR,,0.00,WeatherDisplay:10.37,2013-01-20 00:45:00,
2013-01-19 18:47:00,40.0,28.0,30.38,NW,315,11.9,16.1,62,0.00,CLR,,0.00,WeatherDisplay:10.37,2013-01-20 00:47:00,
2013-01-19 18:50:00,40.0,28.4,30.38,NNW,337,11.8,16.1,63,0.00,CLR,,0.00,WeatherDisplay:10.37,2013-01-20 00:50:00,
2013-01-19 18:52:00,40.0,28.0,30.39,NW,315,13.6,19.6,62,0.00,CLR,,0.00,WeatherDisplay:10.37,2013-01-20 00:52:00,
2013-01-19 18:56:00,40.0,27.6,30.39,NNW,337,17.2,21.9,61,0.00,CLR,,0.00,WeatherDisplay:10.37,2013-01-20 00:56:00,
2013-01-19 18:58:00,40.0,27.6,30.39,WNW,292,16.2,20.0,61,0.00,CLR,,0.00,WeatherDisplay:10.37,2013-01-20 00:58:00,
2013-01-19 19:01:00,40.0,27.6,30.39,NW,315,16.6,24.2,61,0.00,CLR,,0.00,WeatherDisplay:10.37,2013-01-20 01:01:00,
2013-01-19 19:03:00,40.0,28.0,30.39,NW,315,15.2,21.9,62,0.00,CLR,,0.00,WeatherDisplay:10.37,2013-01-20 01:03:00,
2013-01-19 19:06:00,40.0,28.4,30.39,NW,315,18.6,24.2,63,0.00,CLR,,0.00,WeatherDisplay:10.37,2013-01-20 01:06:00,
2013-01-19 19:08:00,40.0,28.4,30.39,NNW,337,18.8,25.3,63,0.00,CLR,,0.00,WeatherDisplay:10.37,2013-01-20 01:08:00,
2013-01-19 19:11:00,40.0,28.4,30.39,NNW,337,16.1,25.3,63,0.00,CLR,,0.00,WeatherDisplay:10.37,2013-01-20 01:11:00,
2013-01-19 19:13:00,40.0,28.4,30.40,NW,315,14.0,17.3,63,0.00,CLR,,0.00,WeatherDisplay:10.37,2013-01-20 01:13:00,
2013-01-19 19:17:00,40.0,28.8,30.40,NNW,337,19.1,26.5,64,0.00,CLR,,0.00,WeatherDisplay:10.37,2013-01-20 01:17:00,
2013-01-19 19:18:00,39.0,28.2,30.40,NNW,337,17.9,24.2,65,0.00,CLR,,0.00,WeatherDisplay:10.37,2013-01-20 01:18:00,
2013-01-19 19:22:00,39.0,29.0,30.39,NNW,337,26.7,34.5,67,0.00,CLR,,0.00,WeatherDisplay:10.37,2013-01-20 01:22:00,
2013-01-19 19:23:00,38.0,29.1,30.39,NNW,337,27.5,35.7,70,0.00,CLR,,0.00,WeatherDisplay:10.37,2013-01-20 01:23:00,
2013-01-19 19:28:00,36.0,28.2,30.39,NNW,337,23.1,33.4,73,0.00,CLR,,0.00,WeatherDisplay:10.37,2013-01-20 01:28:00,
2013-01-19 19:33:00,35.0,27.9,30.43,NNW,337,11.8,26.0,75,0.00,CLR,,0.00,WeatherDisplay:10.37,2013-01-20 01:33:00,
2013-01-19 19:34:00,35.0,28.2,30.43,NNW,337,20.1,27.6,76,0.00,CLR,,0.00,WeatherDisplay:10.37,2013-01-20 01:34:00,
2013-01-19 19:38:00,34.0,27.5,30.43,NNW,337,17.5,29.9,77,0.00,CLR,,0.00,WeatherDisplay:10.37,2013-01-20 01:38:00,
2013-01-19 19:39:00,34.0,27.5,30.43,North,360,16.2,29.9,77,0.00,CLR,,0.00,WeatherDisplay:10.37,2013-01-20 01:39:00,
2013-01-19 19:44:00,34.0,27.5,30.45,NNW,337,17.2,26.5,77,0.00,CLR,,0.00,WeatherDisplay:10.37,2013-01-20 01:44:00,
2013-01-19 19:49:00,34.0,28.2,30.45,NNW,337,16.5,20.7,79,0.00,CLR,,0.00,WeatherDisplay:10.37,2013-01-20 01:49:00,
2013-01-19 19:50:00,33.0,27.2,30.45,North,360,14.5,20.7,79,0.00,CLR,,0.00,WeatherDisplay:10.37,2013-01-20 01:50:00,
2013-01-19 19:54:00,33.0,26.6,30.46,NNW,337,13.7,23.0,77,0.00,CLR,,0.00,WeatherDisplay:10.37,2013-01-20 01:54:00,
2013-01-19 19:55:00,33.0,26.3,30.46,NNW,337,20.2,36.0,76,0.00,CLR,,0.00,WeatherDisplay:10.37,2013-01-20 01:55:00,
2013-01-19 19:59:00,33.0,22.9,30.46,NNW,337,22.7,32.2,66,0.00,CLR,,0.00,WeatherDisplay:10.37,2013-01-20 01:59:00,
2013-01-19 20:00:00,33.0,22.9,30.46,NNW,337,22.4,35.7,66,0.00,CLR,,0.00,WeatherDisplay:10.37,2013-01-20 02:00:00,
2013-01-19 20:05:00,33.0,22.9,30.47,NNW,337,25.6,33.4,66,0.00,CLR,,0.00,WeatherDisplay:10.37,2013-01-20 02:05:00,
2013-01-19 20:10:00,32.0,22.3,30.47,NNW,337,17.0,31.1,67,0.00,CLR,,0.00,WeatherDisplay:10.37,2013-01-20 02:10:00,
2013-01-19 20:15:00,32.0,22.3,30.47,NNW,337,20.9,27.6,67,0.00,CLR,,0.00,WeatherDisplay:10.37,2013-01-20 02:15:00,
2013-01-19 20:20:00,32.0,22.6,30.47,NNW,337,14.3,28.8,68,0.00,CLR,,0.00,WeatherDisplay:10.37,2013-01-20 02:20:00,
2013-01-19 20:25:00,31.0,22.0,30.49,NNW,337,14.4,20.7,69,0.00,CLR,,0.00,WeatherDisplay:10.37,2013-01-20 02:25:00,
2013-01-19 20:26:00,31.0,22.0,30.49,NW,315,12.9,18.4,69,0.00,CLR,,0.00,WeatherDisplay:10.37,2013-01-20 02:26:00,
2013-01-19 20:30:00,31.0,22.4,30.49,NW,315,16.0,21.9,70,0.00,CLR,,0.00,WeatherDisplay:10.37,2013-01-20 02:30:00,
2013-01-19 20:31:00,31.0,22.4,30.49,NNW,337,12.3,19.6,70,0.00,CLR,,0.00,WeatherDisplay:10.37,2013-01-20 02:31:00,
2013-01-19 20:35:00,31.0,22.4,30.50,NNW,337,14.6,20.0,70,0.00,CLR,,0.00,WeatherDisplay:10.37,2013-01-20 02:35:00,
2013-01-19 20:37:00,31.0,22.0,30.50,NNW,337,15.0,18.4,69,0.00,CLR,,0.00,WeatherDisplay:10.37,2013-01-20 02:37:00,
2013-01-19 20:40:00,31.0,22.0,30.50,NNW,337,18.1,19.6,69,0.00,CLR,,0.00,WeatherDisplay:10.37,2013-01-20 02:40:00,
2013-01-19 20:42:00,31.0,21.7,30.50,NNW,337,18.2,21.9,68,0.00,CLR,,0.00,WeatherDisplay:10.37,2013-01-20 02:42:00,
2013-01-19 20:48:00,30.0,20.4,30.50,NNW,337,15.1,21.9,67,0.00,CLR,,0.00,WeatherDisplay:10.37,2013-01-20 02:48:00,
2013-01-19 20:53:00,30.0,20.4,30.51,NNW,337,11.6,16.1,67,0.00,CLR,,0.00,WeatherDisplay:10.37,2013-01-20 02:53:00,
2013-01-19 20:58:00,30.0,20.4,30.51,NNW,337,18.8,26.5,67,0.00,CLR,,0.00,WeatherDisplay:10.37,2013-01-20 02:58:00,
2013-01-19 21:03:00,29.0,21.4,30.51,NNW,337,16.8,19.6,73,0.00,CLR,,0.00,WeatherDisplay:10.37,2013-01-20 03:03:00,
2013-01-19 21:05:00,28.0,21.1,30.51,NNW,337,15.7,21.9,75,0.00,CLR,,0.00,WeatherDisplay:10.37,2013-01-20 03:05:00,
2013-01-19 21:09:00,28.0,21.1,30.51,North,360,16.2,25.3,75,0.00,CLR,,0.00,WeatherDisplay:10.37,2013-01-20 03:09:00,
2013-01-19 21:10:00,28.0,20.5,30.51,NNW,337,16.3,19.6,73,0.00,CLR,,0.00,WeatherDisplay:10.37,2013-01-20 03:10:00,
2013-01-19 21:14:00,28.0,20.1,30.52,NNW,337,15.8,25.3,72,0.00,CLR,,0.00,WeatherDisplay:10.37,2013-01-20 03:14:00,
2013-01-19 21:16:00,27.0,17.8,30.52,NNW,337,17.0,21.9,68,0.00,CLR,,0.00,WeatherDisplay:10.37,2013-01-20 03:16:00,
2013-01-19 21:19:00,27.0,19.5,30.52,North,360,12.9,20.7,73,0.00,CLR,,0.00,WeatherDisplay:10.37,2013-01-20 03:19:00,
2013-01-19 21:21:00,27.0,20.1,30.52,NNW,337,14.7,23.0,75,0.00,CLR,,0.00,WeatherDisplay:10.37,2013-01-20 03:21:00,
2013-01-19 21:24:00,26.0,18.8,30.54,NNW,337,15.4,19.6,74,0.00,CLR,,0.00,WeatherDisplay:10.37,2013-01-20 03:24:00,
2013-01-19 21:26:00,26.0,18.5,30.54,NNW,337,15.6,19.0,73,0.00,CLR,,0.00,WeatherDisplay:10.37,2013-01-20 03:26:00,
2013-01-19 21:31:00,26.0,18.2,30.54,NNW,337,18.1,21.0,72,0.00,CLR,,0.00,WeatherDisplay:10.37,2013-01-20 03:31:00,
2013-01-19 21:36:00,25.0,16.3,30.55,NNW,337,20.9,29.9,69,0.00,CLR,,0.00,WeatherDisplay:10.37,2013-01-20 03:36:00,
2013-01-19 21:42:00,25.0,16.3,30.55,NNW,337,15.0,19.6,69,0.00,CLR,,0.00,WeatherDisplay:10.37,2013-01-20 03:42:00,
2013-01-19 21:47:00,25.0,17.6,30.55,NNW,337,17.7,23.0,73,0.00,CLR,,0.00,WeatherDisplay:10.37,2013-01-20 03:47:00,
2013-01-19 21:52:00,24.0,15.0,30.56,NNW,337,16.4,28.8,68,0.00,CLR,,0.00,WeatherDisplay:10.37,2013-01-20 03:52:00,
2013-01-19 21:53:00,24.0,15.0,30.56,WNW,292,16.8,28.8,68,0.00,CLR,,0.00,WeatherDisplay:10.37,2013-01-20 03:53:00,
2013-01-19 21:57:00,24.0,16.0,30.56,NNW,337,16.0,25.3,71,0.00,CLR,,0.00,WeatherDisplay:10.37,2013-01-20 03:57:00,
2013-01-19 21:58:00,24.0,16.0,30.56,NNW,337,15.7,25.3,71,0.00,CLR,,0.00,WeatherDisplay:10.37,2013-01-20 03:58:00,
2013-01-19 22:02:00,23.0,15.0,30.58,NNW,337,17.9,24.2,71,0.00,CLR,,0.00,WeatherDisplay:10.37,2013-01-20 04:02:00,
2013-01-19 22:03:00,23.0,15.0,30.58,NNW,337,18.0,24.2,71,0.00,CLR,,0.00,WeatherDisplay:10.37,2013-01-20 04:03:00,
2013-01-19 22:07:00,23.0,16.3,30.58,NNW,337,17.7,24.0,75,0.00,CLR,,0.00,WeatherDisplay:10.37,2013-01-20 04:07:00,
2013-01-19 22:08:00,23.0,16.3,30.58,NNW,337,18.3,23.0,75,0.00,CLR,,0.00,WeatherDisplay:10.37,2013-01-20 04:08:00,
2013-01-19 22:13:00,23.0,16.9,30.59,NW,315,8.1,13.8,77,0.00,CLR,,0.00,WeatherDisplay:10.37,2013-01-20 04:13:00,
2013-01-19 22:19:00,22.0,16.2,30.59,North,360,15.0,24.2,78,0.00,CLR,,0.00,WeatherDisplay:10.37,2013-01-20 04:19:00,
2013-01-19 22:22:00,22.0,16.5,30.59,NNW,337,16.5,21.0,79,0.00,CLR,,0.00,WeatherDisplay:10.37,2013-01-20 04:22:00,
2013-01-19 22:24:00,21.0,15.5,30.60,NNE,22,10.1,17.3,79,0.00,CLR,,0.00,WeatherDisplay:10.37,2013-01-20 04:24:00,
2013-01-19 22:27:00,21.0,15.5,30.60,NNE,22,10.9,18.4,79,0.00,CLR,,0.00,WeatherDisplay:10.37,2013-01-20 04:27:00,
2013-01-19 22:29:00,21.0,15.5,30.60,NNW,337,9.6,13.0,79,0.00,CLR,,0.00,WeatherDisplay:10.37,2013-01-20 04:29:00,
2013-01-19 22:33:00,21.0,14.3,30.60,WNW,292,14.3,15.0,75,0.00,CLR,,0.00,WeatherDisplay:10.37,2013-01-20 04:33:00,
2013-01-19 22:34:00,21.0,13.4,30.60,NNW,337,16.1,23.0,72,0.00,CLR,,0.00,WeatherDisplay:10.37,2013-01-20 04:34:00,
2013-01-19 22:38:00,21.0,13.1,30.60,NNW,337,17.8,20.7,71,0.00,CLR,,0.00,WeatherDisplay:10.37,2013-01-20 04:38:00,
2013-01-19 22:39:00,21.0,13.1,30.60,NNW,337,13.2,23.0,71,0.00,CLR,,0.00,WeatherDisplay:10.37,2013-01-20 04:39:00,
2013-01-19 22:43:00,21.0,12.7,30.61,NNW,337,17.6,24.2,70,0.00,CLR,,0.00,WeatherDisplay:10.37,2013-01-20 04:43:00,
2013-01-19 22:44:00,21.0,13.4,30.61,North,360,16.6,23.0,72,0.00,CLR,,0.00,WeatherDisplay:10.37,2013-01-20 04:44:00,
2013-01-19 22:48:00,20.0,12.7,30.61,NNW,337,13.7,18.4,73,0.00,CLR,,0.00,WeatherDisplay:10.37,2013-01-20 04:48:00,
2013-01-19 22:49:00,20.0,12.7,30.61,NNW,337,15.8,20.0,73,0.00,CLR,,0.00,WeatherDisplay:10.37,2013-01-20 04:49:00,
2013-01-19 22:53:00,20.0,12.7,30.62,NNW,337,17.1,20.0,73,0.00,CLR,,0.00,WeatherDisplay:10.37,2013-01-20 04:53:00,
2013-01-19 22:54:00,20.0,13.3,30.62,NNW,337,14.1,24.2,75,0.00,CLR,,0.00,WeatherDisplay:10.37,2013-01-20 04:54:00,
2013-01-19 22:58:00,20.0,12.7,30.62,NNW,337,15.8,17.3,73,0.00,CLR,,0.00,WeatherDisplay:10.37,2013-01-20 04:58:00,
2013-01-19 23:01:00,20.0,12.7,30.62,WNW,292,13.2,17.3,73,0.00,CLR,,0.00,WeatherDisplay:10.37,2013-01-20 05:01:00,
2013-01-19 23:03:00,20.0,13.0,30.63,NNW,337,9.9,12.7,74,0.00,CLR,,0.00,WeatherDisplay:10.37,2013-01-20 05:03:00,
2013-01-19 23:06:00,20.0,13.3,30.63,NNW,337,11.7,16.1,75,0.00,CLR,,0.00,WeatherDisplay:10.37,2013-01-20 05:06:00,
2013-01-19 23:08:00,20.0,13.3,30.63,NNW,337,9.8,15.0,75,0.00,CLR,,0.00,WeatherDisplay:10.37,2013-01-20 05:08:00,
2013-01-19 23:09:00,20.0,13.3,30.63,NNW,337,8.5,15.0,75,0.00,CLR,,0.00,WeatherDisplay:10.37,2013-01-20 05:09:00,
2013-01-19 23:11:00,19.0,12.7,30.63,NNW,337,10.7,11.5,76,0.00,CLR,,0.00,WeatherDisplay:10.37,2013-01-20 05:11:00,
2013-01-19 23:13:00,19.0,13.0,30.64,NNW,337,9.9,11.5,77,0.00,CLR,,0.00,WeatherDisplay:10.37,2013-01-20 05:13:00,
2013-01-19 23:14:00,19.0,13.0,30.64,NNW,337,10.4,13.0,77,0.00,CLR,,0.00,WeatherDisplay:10.37,2013-01-20 05:14:00,
2013-01-19 23:16:00,19.0,13.3,30.64,NNW,337,8.7,11.5,78,0.00,CLR,,0.00,WeatherDisplay:10.37,2013-01-20 05:16:00,
2013-01-19 23:18:00,19.0,13.3,30.64,NNW,337,8.7,13.8,78,0.00,CLR,,0.00,WeatherDisplay:10.37,2013-01-20 05:18:00,
2013-01-19 23:19:00,19.0,13.3,30.64,NNW,337,9.3,13.8,78,0.00,CLR,,0.00,WeatherDisplay:10.37,2013-01-20 05:19:00,
2013-01-19 23:21:00,19.0,13.3,30.64,NNW,337,9.5,11.5,78,0.00,CLR,,0.00,WeatherDisplay:10.37,2013-01-20 05:21:00,
2013-01-19 23:23:00,19.0,13.3,30.63,WNW,292,11.9,15.0,78,0.00,CLR,,0.00,WeatherDisplay:10.37,2013-01-20 05:23:00,
2013-01-19 23:24:00,19.0,13.3,30.63,NW,315,12.8,14.0,78,0.00,CLR,,0.00,WeatherDisplay:10.37,2013-01-20 05:24:00,
2013-01-19 23:26:00,19.0,13.3,30.63,NW,315,11.1,12.7,78,0.00,CLR,,0.00,WeatherDisplay:10.37,2013-01-20 05:26:00,
2013-01-19 23:27:00,19.0,13.0,30.63,NW,315,11.9,12.7,77,0.00,CLR,,0.00,WeatherDisplay:10.37,2013-01-20 05:27:00,
2013-01-19 23:28:00,19.0,13.0,30.63,NNW,337,11.5,12.7,77,0.00,CLR,,0.00,WeatherDisplay:10.37,2013-01-20 05:28:00,
2013-01-19 23:29:00,19.0,13.0,30.63,NNW,337,11.5,12.7,77,0.00,CLR,,0.00,WeatherDisplay:10.37,2013-01-20 05:29:00,
2013-01-19 23:31:00,19.0,12.7,30.63,NW,315,16.5,19.6,76,0.00,CLR,,0.00,WeatherDisplay:10.37,2013-01-20 05:31:00,
2013-01-19 23:32:00,19.0,12.7,30.65,NNW,337,11.0,18.4,76,0.00,CLR,,0.00,WeatherDisplay:10.37,2013-01-20 05:32:00,
2013-01-19 23:34:00,19.0,13.0,30.65,NNW,337,9.3,15.0,77,0.00,CLR,,0.00,WeatherDisplay:10.37,2013-01-20 05:34:00,
2013-01-19 23:36:00,19.0,12.7,30.65,NW,315,11.7,15.0,76,0.00,CLR,,0.00,WeatherDisplay:10.37,2013-01-20 05:36:00,
2013-01-19 23:38:00,19.0,12.4,30.65,WNW,292,12.5,16.1,75,0.00,CLR,,0.00,WeatherDisplay:10.37,2013-01-20 05:38:00,
2013-01-19 23:39:00,19.0,12.4,30.65,WNW,292,13.0,16.1,75,0.00,CLR,,0.00,WeatherDisplay:10.37,2013-01-20 05:39:00,
2013-01-19 23:42:00,18.0,11.7,30.65,WNW,292,12.6,14.0,76,0.00,CLR,,0.00,WeatherDisplay:10.37,2013-01-20 05:42:00,
2013-01-19 23:43:00,18.0,11.7,30.65,NW,315,13.0,15.0,76,0.00,CLR,,0.00,WeatherDisplay:10.37,2013-01-20 05:43:00,
2013-01-19 23:44:00,18.0,11.7,30.65,WNW,292,11.6,14.0,76,0.00,CLR,,0.00,WeatherDisplay:10.37,2013-01-20 05:44:00,
2013-01-19 23:47:00,18.0,11.7,30.65,NW,315,12.4,18.4,76,0.00,CLR,,0.00,WeatherDisplay:10.37,2013-01-20 05:47:00,
2013-01-19 23:48:00,18.0,12.0,30.65,NW,315,12.2,15.0,77,0.00,CLR,,0.00,WeatherDisplay:10.37,2013-01-20 05:48:00,
2013-01-19 23:49:00,18.0,11.7,30.65,WNW,292,13.5,17.3,76,0.00,CLR,,0.00,WeatherDisplay:10.37,2013-01-20 05:49:00,
2013-01-19 23:52:00,18.0,12.3,30.65,NW,315,10.0,11.5,78,0.00,CLR,,0.00,WeatherDisplay:10.37,2013-01-20 05:52:00,
2013-01-19 23:53:00,18.0,12.0,30.66,NW,315,9.6,11.5,77,0.00,CLR,,0.00,WeatherDisplay:10.37,2013-01-20 05:53:00,
2013-01-19 23:54:00,18.0,12.3,30.66,NW,315,8.7,11.0,78,0.00,CLR,,0.00,WeatherDisplay:10.37,2013-01-20 05:54:00,
2013-01-19 23:57:00,18.0,12.0,30.66,WNW,292,9.5,12.0,77,0.00,CLR,,0.00,WeatherDisplay:10.37,2013-01-20 05:57:00,
2013-01-19 23:58:00,18.0,12.0,30.66,NNW,337,11.0,14.0,77,0.00,CLR,,0.00,WeatherDisplay:10.37,2013-01-20 05:58:00,
2013-01-19 23:59:00,18.0,12.0,30.66,NW,315,13.8,17.3,77,0.00,CLR,,0.00,WeatherDisplay:10.37,2013-01-20 05:59:00,